<?xml version="1.0" encoding="UTF-8" standalone="no" ?>
<gpx xmlns="http://www.topografix.com/GPX/1/1" xmlns:xsi="http://www.w3.org/2001/XMLSchema-instance" xsi:schemaLocation="http://www.topografix.com/GPX/1/1 http://www.topografix.com/GPX/1/1/gpx.xsd" version="1.1" creator="VisuGPX - https://www.visugpx.com">
  <metadata>
    <name>Vacances 2021</name>
  </metadata>
  <trk>
    <name><![CDATA[Journal actif: 2021-07-30 12:32]]></name>
    <trkseg>
      <trkpt lat="49.28472" lon="-0.70581">
        <ele>53.97</ele>
        <time>2021-07-30T14:32:20Z</time>
      </trkpt>
      <trkpt lat="49.28479" lon="-0.70593">
        <ele>47.24</ele>
        <time>2021-07-30T14:33:38Z</time>
      </trkpt>
      <trkpt lat="49.2848" lon="-0.70595">
        <ele>47.24</ele>
        <time>2021-07-30T14:33:45Z</time>
      </trkpt>
      <trkpt lat="49.28476" lon="-0.70601">
        <ele>47.24</ele>
        <time>2021-07-30T14:33:49Z</time>
      </trkpt>
      <trkpt lat="49.28471" lon="-0.70601">
        <ele>47.24</ele>
        <time>2021-07-30T14:33:50Z</time>
      </trkpt>
      <trkpt lat="49.28428" lon="-0.70601">
        <ele>46.76</ele>
        <time>2021-07-30T14:34:04Z</time>
      </trkpt>
      <trkpt lat="49.28426" lon="-0.70556">
        <ele>45.8</ele>
        <time>2021-07-30T14:34:14Z</time>
      </trkpt>
      <trkpt lat="49.28426" lon="-0.7055">
        <ele>45.8</ele>
        <time>2021-07-30T14:34:15Z</time>
      </trkpt>
      <trkpt lat="49.28426" lon="-0.70543">
        <ele>45.8</ele>
        <time>2021-07-30T14:34:16Z</time>
      </trkpt>
      <trkpt lat="49.2843" lon="-0.70535">
        <ele>45.8</ele>
        <time>2021-07-30T14:34:17Z</time>
      </trkpt>
      <trkpt lat="49.2843" lon="-0.70535">
        <ele>45.8</ele>
        <time>2021-07-30T14:34:18Z</time>
      </trkpt>
      <trkpt lat="49.28434" lon="-0.70534">
        <ele>45.8</ele>
        <time>2021-07-30T14:34:19Z</time>
      </trkpt>
      <trkpt lat="49.28439" lon="-0.70532">
        <ele>45.8</ele>
        <time>2021-07-30T14:34:20Z</time>
      </trkpt>
      <trkpt lat="49.28471" lon="-0.70526">
        <ele>45.32</ele>
        <time>2021-07-30T14:34:26Z</time>
      </trkpt>
      <trkpt lat="49.28476" lon="-0.70526">
        <ele>45.32</ele>
        <time>2021-07-30T14:34:27Z</time>
      </trkpt>
      <trkpt lat="49.28481" lon="-0.70525">
        <ele>44.84</ele>
        <time>2021-07-30T14:34:28Z</time>
      </trkpt>
      <trkpt lat="49.28486" lon="-0.70521">
        <ele>44.84</ele>
        <time>2021-07-30T14:34:29Z</time>
      </trkpt>
      <trkpt lat="49.28489" lon="-0.70517">
        <ele>44.84</ele>
        <time>2021-07-30T14:34:30Z</time>
      </trkpt>
      <trkpt lat="49.28529" lon="-0.70467">
        <ele>44.36</ele>
        <time>2021-07-30T14:34:41Z</time>
      </trkpt>
      <trkpt lat="49.28539" lon="-0.70459">
        <ele>44.84</ele>
        <time>2021-07-30T14:34:51Z</time>
      </trkpt>
      <trkpt lat="49.28557" lon="-0.70446">
        <ele>44.36</ele>
        <time>2021-07-30T14:35:01Z</time>
      </trkpt>
      <trkpt lat="49.28557" lon="-0.70446">
        <ele>43.4</ele>
        <time>2021-07-30T14:35:16Z</time>
      </trkpt>
      <trkpt lat="49.28557" lon="-0.70446">
        <ele>43.4</ele>
        <time>2021-07-30T14:36:07Z</time>
      </trkpt>
      <trkpt lat="49.28557" lon="-0.70446">
        <ele>41.47</ele>
        <time>2021-07-30T14:37:47Z</time>
      </trkpt>
      <trkpt lat="49.28557" lon="-0.70446">
        <ele>40.99</ele>
        <time>2021-07-30T14:38:43Z</time>
      </trkpt>
      <trkpt lat="49.2853" lon="-0.70412">
        <ele>41.47</ele>
        <time>2021-07-30T14:38:56Z</time>
      </trkpt>
      <trkpt lat="49.28524" lon="-0.70407">
        <ele>40.99</ele>
        <time>2021-07-30T14:39:12Z</time>
      </trkpt>
      <trkpt lat="49.28521" lon="-0.704">
        <ele>40.99</ele>
        <time>2021-07-30T14:39:16Z</time>
      </trkpt>
      <trkpt lat="49.28511" lon="-0.70385">
        <ele>40.99</ele>
        <time>2021-07-30T14:39:28Z</time>
      </trkpt>
      <trkpt lat="49.28446" lon="-0.70391">
        <ele>41.47</ele>
        <time>2021-07-30T14:39:41Z</time>
      </trkpt>
      <trkpt lat="49.28392" lon="-0.70398">
        <ele>41.47</ele>
        <time>2021-07-30T14:39:56Z</time>
      </trkpt>
      <trkpt lat="49.28392" lon="-0.70398">
        <ele>41.47</ele>
        <time>2021-07-30T14:39:57Z</time>
      </trkpt>
      <trkpt lat="49.2839" lon="-0.70404">
        <ele>41.47</ele>
        <time>2021-07-30T14:39:58Z</time>
      </trkpt>
      <trkpt lat="49.28387" lon="-0.70409">
        <ele>41.95</ele>
        <time>2021-07-30T14:39:59Z</time>
      </trkpt>
      <trkpt lat="49.28385" lon="-0.70413">
        <ele>41.95</ele>
        <time>2021-07-30T14:40:00Z</time>
      </trkpt>
      <trkpt lat="49.28377" lon="-0.70416">
        <ele>42.44</ele>
        <time>2021-07-30T14:40:01Z</time>
      </trkpt>
      <trkpt lat="49.28376" lon="-0.70423">
        <ele>42.44</ele>
        <time>2021-07-30T14:40:02Z</time>
      </trkpt>
      <trkpt lat="49.28375" lon="-0.70431">
        <ele>42.44</ele>
        <time>2021-07-30T14:40:03Z</time>
      </trkpt>
      <trkpt lat="49.28373" lon="-0.7044">
        <ele>42.92</ele>
        <time>2021-07-30T14:40:04Z</time>
      </trkpt>
      <trkpt lat="49.28363" lon="-0.70581">
        <ele>44.84</ele>
        <time>2021-07-30T14:40:16Z</time>
      </trkpt>
      <trkpt lat="49.28376" lon="-0.70751">
        <ele>44.36</ele>
        <time>2021-07-30T14:40:28Z</time>
      </trkpt>
      <trkpt lat="49.28385" lon="-0.70863">
        <ele>46.28</ele>
        <time>2021-07-30T14:40:38Z</time>
      </trkpt>
      <trkpt lat="49.28385" lon="-0.7087">
        <ele>47.72</ele>
        <time>2021-07-30T14:40:48Z</time>
      </trkpt>
      <trkpt lat="49.28387" lon="-0.70903">
        <ele>47.72</ele>
        <time>2021-07-30T14:41:11Z</time>
      </trkpt>
      <trkpt lat="49.28375" lon="-0.71026">
        <ele>47.72</ele>
        <time>2021-07-30T14:41:21Z</time>
      </trkpt>
      <trkpt lat="49.28344" lon="-0.71155">
        <ele>49.65</ele>
        <time>2021-07-30T14:41:31Z</time>
      </trkpt>
      <trkpt lat="49.28325" lon="-0.71229">
        <ele>50.13</ele>
        <time>2021-07-30T14:41:43Z</time>
      </trkpt>
      <trkpt lat="49.28324" lon="-0.71232">
        <ele>50.61</ele>
        <time>2021-07-30T14:41:55Z</time>
      </trkpt>
      <trkpt lat="49.28315" lon="-0.71265">
        <ele>51.09</ele>
        <time>2021-07-30T14:42:40Z</time>
      </trkpt>
      <trkpt lat="49.28279" lon="-0.71397">
        <ele>52.53</ele>
        <time>2021-07-30T14:42:50Z</time>
      </trkpt>
      <trkpt lat="49.28254" lon="-0.71545">
        <ele>53.49</ele>
        <time>2021-07-30T14:43:00Z</time>
      </trkpt>
      <trkpt lat="49.28249" lon="-0.71808">
        <ele>54.45</ele>
        <time>2021-07-30T14:43:16Z</time>
      </trkpt>
      <trkpt lat="49.28249" lon="-0.71858">
        <ele>54.45</ele>
        <time>2021-07-30T14:43:20Z</time>
      </trkpt>
      <trkpt lat="49.28249" lon="-0.71867">
        <ele>53.97</ele>
        <time>2021-07-30T14:43:21Z</time>
      </trkpt>
      <trkpt lat="49.2825" lon="-0.71876">
        <ele>53.97</ele>
        <time>2021-07-30T14:43:22Z</time>
      </trkpt>
      <trkpt lat="49.2825" lon="-0.71885">
        <ele>53.97</ele>
        <time>2021-07-30T14:43:23Z</time>
      </trkpt>
      <trkpt lat="49.28257" lon="-0.71895">
        <ele>53.49</ele>
        <time>2021-07-30T14:43:24Z</time>
      </trkpt>
      <trkpt lat="49.28268" lon="-0.7191">
        <ele>53.01</ele>
        <time>2021-07-30T14:43:26Z</time>
      </trkpt>
      <trkpt lat="49.28271" lon="-0.71932">
        <ele>52.53</ele>
        <time>2021-07-30T14:43:27Z</time>
      </trkpt>
      <trkpt lat="49.28271" lon="-0.71932">
        <ele>52.53</ele>
        <time>2021-07-30T14:43:28Z</time>
      </trkpt>
      <trkpt lat="49.28269" lon="-0.71943">
        <ele>52.53</ele>
        <time>2021-07-30T14:43:29Z</time>
      </trkpt>
      <trkpt lat="49.28265" lon="-0.71951">
        <ele>52.53</ele>
        <time>2021-07-30T14:43:30Z</time>
      </trkpt>
      <trkpt lat="49.2826" lon="-0.7196">
        <ele>52.05</ele>
        <time>2021-07-30T14:43:31Z</time>
      </trkpt>
      <trkpt lat="49.28257" lon="-0.71967">
        <ele>52.05</ele>
        <time>2021-07-30T14:43:32Z</time>
      </trkpt>
      <trkpt lat="49.28243" lon="-0.71963">
        <ele>51.57</ele>
        <time>2021-07-30T14:43:33Z</time>
      </trkpt>
      <trkpt lat="49.28237" lon="-0.71961">
        <ele>51.57</ele>
        <time>2021-07-30T14:43:34Z</time>
      </trkpt>
      <trkpt lat="49.28237" lon="-0.71961">
        <ele>51.57</ele>
        <time>2021-07-30T14:43:35Z</time>
      </trkpt>
      <trkpt lat="49.28233" lon="-0.71957">
        <ele>51.57</ele>
        <time>2021-07-30T14:43:36Z</time>
      </trkpt>
      <trkpt lat="49.28228" lon="-0.71948">
        <ele>52.05</ele>
        <time>2021-07-30T14:43:37Z</time>
      </trkpt>
      <trkpt lat="49.28224" lon="-0.7194">
        <ele>52.05</ele>
        <time>2021-07-30T14:43:38Z</time>
      </trkpt>
      <trkpt lat="49.28204" lon="-0.71935">
        <ele>52.53</ele>
        <time>2021-07-30T14:43:39Z</time>
      </trkpt>
      <trkpt lat="49.28196" lon="-0.71936">
        <ele>53.01</ele>
        <time>2021-07-30T14:43:40Z</time>
      </trkpt>
      <trkpt lat="49.28196" lon="-0.71936">
        <ele>53.01</ele>
        <time>2021-07-30T14:43:41Z</time>
      </trkpt>
      <trkpt lat="49.28052" lon="-0.71943">
        <ele>55.89</ele>
        <time>2021-07-30T14:43:56Z</time>
      </trkpt>
      <trkpt lat="49.27985" lon="-0.71914">
        <ele>55.89</ele>
        <time>2021-07-30T14:44:04Z</time>
      </trkpt>
      <trkpt lat="49.27966" lon="-0.71904">
        <ele>54.45</ele>
        <time>2021-07-30T14:44:12Z</time>
      </trkpt>
      <trkpt lat="49.27966" lon="-0.71904">
        <ele>54.45</ele>
        <time>2021-07-30T14:44:13Z</time>
      </trkpt>
      <trkpt lat="49.27908" lon="-0.71869">
        <ele>54.45</ele>
        <time>2021-07-30T14:44:22Z</time>
      </trkpt>
      <trkpt lat="49.2787" lon="-0.71846">
        <ele>54.45</ele>
        <time>2021-07-30T14:44:27Z</time>
      </trkpt>
      <trkpt lat="49.27863" lon="-0.71842">
        <ele>55.41</ele>
        <time>2021-07-30T14:44:28Z</time>
      </trkpt>
      <trkpt lat="49.27853" lon="-0.71836">
        <ele>55.89</ele>
        <time>2021-07-30T14:44:30Z</time>
      </trkpt>
      <trkpt lat="49.27842" lon="-0.71847">
        <ele>55.89</ele>
        <time>2021-07-30T14:44:31Z</time>
      </trkpt>
      <trkpt lat="49.27836" lon="-0.71847">
        <ele>56.37</ele>
        <time>2021-07-30T14:44:32Z</time>
      </trkpt>
      <trkpt lat="49.27833" lon="-0.71835">
        <ele>56.37</ele>
        <time>2021-07-30T14:44:33Z</time>
      </trkpt>
      <trkpt lat="49.27824" lon="-0.71822">
        <ele>56.37</ele>
        <time>2021-07-30T14:44:34Z</time>
      </trkpt>
      <trkpt lat="49.27817" lon="-0.71818">
        <ele>56.86</ele>
        <time>2021-07-30T14:44:35Z</time>
      </trkpt>
      <trkpt lat="49.27809" lon="-0.71814">
        <ele>56.86</ele>
        <time>2021-07-30T14:44:36Z</time>
      </trkpt>
      <trkpt lat="49.278" lon="-0.71809">
        <ele>57.34</ele>
        <time>2021-07-30T14:44:37Z</time>
      </trkpt>
      <trkpt lat="49.27723" lon="-0.71764">
        <ele>57.82</ele>
        <time>2021-07-30T14:44:47Z</time>
      </trkpt>
      <trkpt lat="49.2772" lon="-0.71761">
        <ele>58.3</ele>
        <time>2021-07-30T14:44:48Z</time>
      </trkpt>
      <trkpt lat="49.27712" lon="-0.7177">
        <ele>58.3</ele>
        <time>2021-07-30T14:44:49Z</time>
      </trkpt>
      <trkpt lat="49.27706" lon="-0.7177">
        <ele>58.3</ele>
        <time>2021-07-30T14:44:50Z</time>
      </trkpt>
      <trkpt lat="49.27703" lon="-0.7177">
        <ele>58.3</ele>
        <time>2021-07-30T14:44:51Z</time>
      </trkpt>
      <trkpt lat="49.27698" lon="-0.71759">
        <ele>58.3</ele>
        <time>2021-07-30T14:44:52Z</time>
      </trkpt>
      <trkpt lat="49.27693" lon="-0.71749">
        <ele>58.3</ele>
        <time>2021-07-30T14:44:53Z</time>
      </trkpt>
      <trkpt lat="49.27679" lon="-0.7174">
        <ele>58.3</ele>
        <time>2021-07-30T14:44:54Z</time>
      </trkpt>
      <trkpt lat="49.27672" lon="-0.71735">
        <ele>58.3</ele>
        <time>2021-07-30T14:44:55Z</time>
      </trkpt>
      <trkpt lat="49.27598" lon="-0.7166">
        <ele>52.53</ele>
        <time>2021-07-30T14:45:06Z</time>
      </trkpt>
      <trkpt lat="49.27582" lon="-0.71638">
        <ele>52.53</ele>
        <time>2021-07-30T14:45:13Z</time>
      </trkpt>
      <trkpt lat="49.27568" lon="-0.71618">
        <ele>52.53</ele>
        <time>2021-07-30T14:45:46Z</time>
      </trkpt>
      <trkpt lat="49.27511" lon="-0.7153">
        <ele>53.49</ele>
        <time>2021-07-30T14:45:55Z</time>
      </trkpt>
      <trkpt lat="49.27418" lon="-0.71384">
        <ele>52.53</ele>
        <time>2021-07-30T14:46:08Z</time>
      </trkpt>
      <trkpt lat="49.27369" lon="-0.71306">
        <ele>52.53</ele>
        <time>2021-07-30T14:46:17Z</time>
      </trkpt>
      <trkpt lat="49.27365" lon="-0.713">
        <ele>53.01</ele>
        <time>2021-07-30T14:46:18Z</time>
      </trkpt>
      <trkpt lat="49.27362" lon="-0.71295">
        <ele>53.49</ele>
        <time>2021-07-30T14:46:19Z</time>
      </trkpt>
      <trkpt lat="49.27362" lon="-0.71295">
        <ele>53.49</ele>
        <time>2021-07-30T14:46:20Z</time>
      </trkpt>
      <trkpt lat="49.2735" lon="-0.71289">
        <ele>53.49</ele>
        <time>2021-07-30T14:46:21Z</time>
      </trkpt>
      <trkpt lat="49.2735" lon="-0.71282">
        <ele>53.49</ele>
        <time>2021-07-30T14:46:22Z</time>
      </trkpt>
      <trkpt lat="49.27343" lon="-0.71268">
        <ele>53.49</ele>
        <time>2021-07-30T14:46:24Z</time>
      </trkpt>
      <trkpt lat="49.27339" lon="-0.71262">
        <ele>53.49</ele>
        <time>2021-07-30T14:46:25Z</time>
      </trkpt>
      <trkpt lat="49.27332" lon="-0.7125">
        <ele>53.01</ele>
        <time>2021-07-30T14:46:27Z</time>
      </trkpt>
      <trkpt lat="49.27283" lon="-0.71174">
        <ele>49.16</ele>
        <time>2021-07-30T14:46:39Z</time>
      </trkpt>
      <trkpt lat="49.27202" lon="-0.71046">
        <ele>41.47</ele>
        <time>2021-07-30T14:46:51Z</time>
      </trkpt>
      <trkpt lat="49.27134" lon="-0.70932">
        <ele>39.07</ele>
        <time>2021-07-30T14:47:01Z</time>
      </trkpt>
      <trkpt lat="49.27126" lon="-0.70911">
        <ele>39.07</ele>
        <time>2021-07-30T14:47:07Z</time>
      </trkpt>
      <trkpt lat="49.27115" lon="-0.70885">
        <ele>38.59</ele>
        <time>2021-07-30T14:47:33Z</time>
      </trkpt>
      <trkpt lat="49.2709" lon="-0.70798">
        <ele>36.67</ele>
        <time>2021-07-30T14:47:41Z</time>
      </trkpt>
      <trkpt lat="49.27087" lon="-0.70787">
        <ele>36.67</ele>
        <time>2021-07-30T14:47:42Z</time>
      </trkpt>
      <trkpt lat="49.27083" lon="-0.70778">
        <ele>36.67</ele>
        <time>2021-07-30T14:47:43Z</time>
      </trkpt>
      <trkpt lat="49.27078" lon="-0.70769">
        <ele>36.67</ele>
        <time>2021-07-30T14:47:44Z</time>
      </trkpt>
      <trkpt lat="49.27074" lon="-0.7076">
        <ele>37.15</ele>
        <time>2021-07-30T14:47:45Z</time>
      </trkpt>
      <trkpt lat="49.27067" lon="-0.70753">
        <ele>37.63</ele>
        <time>2021-07-30T14:47:46Z</time>
      </trkpt>
      <trkpt lat="49.27059" lon="-0.70753">
        <ele>37.63</ele>
        <time>2021-07-30T14:47:47Z</time>
      </trkpt>
      <trkpt lat="49.27051" lon="-0.70757">
        <ele>37.63</ele>
        <time>2021-07-30T14:47:48Z</time>
      </trkpt>
      <trkpt lat="49.27044" lon="-0.70761">
        <ele>39.07</ele>
        <time>2021-07-30T14:47:49Z</time>
      </trkpt>
      <trkpt lat="49.26959" lon="-0.70806">
        <ele>45.32</ele>
        <time>2021-07-30T14:47:57Z</time>
      </trkpt>
      <trkpt lat="49.26806" lon="-0.70904">
        <ele>49.65</ele>
        <time>2021-07-30T14:48:08Z</time>
      </trkpt>
      <trkpt lat="49.26726" lon="-0.70954">
        <ele>52.05</ele>
        <time>2021-07-30T14:48:18Z</time>
      </trkpt>
      <trkpt lat="49.26629" lon="-0.71015">
        <ele>52.53</ele>
        <time>2021-07-30T14:48:28Z</time>
      </trkpt>
      <trkpt lat="49.265" lon="-0.71128">
        <ele>53.97</ele>
        <time>2021-07-30T14:48:38Z</time>
      </trkpt>
      <trkpt lat="49.26372" lon="-0.71313">
        <ele>57.34</ele>
        <time>2021-07-30T14:48:48Z</time>
      </trkpt>
      <trkpt lat="49.26158" lon="-0.71625">
        <ele>61.66</ele>
        <time>2021-07-30T14:49:03Z</time>
      </trkpt>
      <trkpt lat="49.26034" lon="-0.71755">
        <ele>63.1</ele>
        <time>2021-07-30T14:49:11Z</time>
      </trkpt>
      <trkpt lat="49.2587" lon="-0.71933">
        <ele>64.07</ele>
        <time>2021-07-30T14:49:26Z</time>
      </trkpt>
      <trkpt lat="49.25686" lon="-0.72166">
        <ele>66.95</ele>
        <time>2021-07-30T14:49:43Z</time>
      </trkpt>
      <trkpt lat="49.25622" lon="-0.72268">
        <ele>70.31</ele>
        <time>2021-07-30T14:49:50Z</time>
      </trkpt>
      <trkpt lat="49.25611" lon="-0.72292">
        <ele>71.27</ele>
        <time>2021-07-30T14:49:52Z</time>
      </trkpt>
      <trkpt lat="49.25607" lon="-0.72304">
        <ele>72.24</ele>
        <time>2021-07-30T14:49:53Z</time>
      </trkpt>
      <trkpt lat="49.25599" lon="-0.72309">
        <ele>72.24</ele>
        <time>2021-07-30T14:49:54Z</time>
      </trkpt>
      <trkpt lat="49.25592" lon="-0.72313">
        <ele>72.24</ele>
        <time>2021-07-30T14:49:55Z</time>
      </trkpt>
      <trkpt lat="49.25584" lon="-0.72312">
        <ele>72.72</ele>
        <time>2021-07-30T14:49:56Z</time>
      </trkpt>
      <trkpt lat="49.25577" lon="-0.72306">
        <ele>71.76</ele>
        <time>2021-07-30T14:49:57Z</time>
      </trkpt>
      <trkpt lat="49.25562" lon="-0.72298">
        <ele>69.35</ele>
        <time>2021-07-30T14:49:58Z</time>
      </trkpt>
      <trkpt lat="49.25553" lon="-0.72303">
        <ele>68.87</ele>
        <time>2021-07-30T14:49:59Z</time>
      </trkpt>
      <trkpt lat="49.25543" lon="-0.7231">
        <ele>68.39</ele>
        <time>2021-07-30T14:50:00Z</time>
      </trkpt>
      <trkpt lat="49.25533" lon="-0.72319">
        <ele>68.87</ele>
        <time>2021-07-30T14:50:01Z</time>
      </trkpt>
      <trkpt lat="49.25474" lon="-0.72365">
        <ele>70.31</ele>
        <time>2021-07-30T14:50:07Z</time>
      </trkpt>
      <trkpt lat="49.25466" lon="-0.7237">
        <ele>72.24</ele>
        <time>2021-07-30T14:50:08Z</time>
      </trkpt>
      <trkpt lat="49.25458" lon="-0.72376">
        <ele>73.68</ele>
        <time>2021-07-30T14:50:09Z</time>
      </trkpt>
      <trkpt lat="49.25455" lon="-0.72408">
        <ele>74.16</ele>
        <time>2021-07-30T14:50:11Z</time>
      </trkpt>
      <trkpt lat="49.25453" lon="-0.7242">
        <ele>74.16</ele>
        <time>2021-07-30T14:50:12Z</time>
      </trkpt>
      <trkpt lat="49.25443" lon="-0.72428">
        <ele>73.68</ele>
        <time>2021-07-30T14:50:13Z</time>
      </trkpt>
      <trkpt lat="49.25436" lon="-0.72433">
        <ele>73.2</ele>
        <time>2021-07-30T14:50:14Z</time>
      </trkpt>
      <trkpt lat="49.25429" lon="-0.72436">
        <ele>72.72</ele>
        <time>2021-07-30T14:50:15Z</time>
      </trkpt>
      <trkpt lat="49.25421" lon="-0.72434">
        <ele>72.24</ele>
        <time>2021-07-30T14:50:16Z</time>
      </trkpt>
      <trkpt lat="49.25411" lon="-0.72439">
        <ele>71.76</ele>
        <time>2021-07-30T14:50:17Z</time>
      </trkpt>
      <trkpt lat="49.25403" lon="-0.72446">
        <ele>73.2</ele>
        <time>2021-07-30T14:50:18Z</time>
      </trkpt>
      <trkpt lat="49.25394" lon="-0.72455">
        <ele>73.2</ele>
        <time>2021-07-30T14:50:19Z</time>
      </trkpt>
      <trkpt lat="49.25379" lon="-0.72487">
        <ele>73.68</ele>
        <time>2021-07-30T14:50:20Z</time>
      </trkpt>
      <trkpt lat="49.25322" lon="-0.72601">
        <ele>72.24</ele>
        <time>2021-07-30T14:50:27Z</time>
      </trkpt>
      <trkpt lat="49.25196" lon="-0.72773">
        <ele>76.08</ele>
        <time>2021-07-30T14:50:36Z</time>
      </trkpt>
      <trkpt lat="49.25051" lon="-0.73037">
        <ele>76.08</ele>
        <time>2021-07-30T14:50:47Z</time>
      </trkpt>
      <trkpt lat="49.2497" lon="-0.73193">
        <ele>75.12</ele>
        <time>2021-07-30T14:50:54Z</time>
      </trkpt>
      <trkpt lat="49.24964" lon="-0.73203">
        <ele>75.12</ele>
        <time>2021-07-30T14:50:55Z</time>
      </trkpt>
      <trkpt lat="49.24969" lon="-0.73233">
        <ele>75.6</ele>
        <time>2021-07-30T14:50:56Z</time>
      </trkpt>
      <trkpt lat="49.24967" lon="-0.73237">
        <ele>76.56</ele>
        <time>2021-07-30T14:50:58Z</time>
      </trkpt>
      <trkpt lat="49.24963" lon="-0.73247">
        <ele>76.08</ele>
        <time>2021-07-30T14:50:59Z</time>
      </trkpt>
      <trkpt lat="49.2496" lon="-0.73256">
        <ele>76.08</ele>
        <time>2021-07-30T14:51:00Z</time>
      </trkpt>
      <trkpt lat="49.2495" lon="-0.73259">
        <ele>76.08</ele>
        <time>2021-07-30T14:51:01Z</time>
      </trkpt>
      <trkpt lat="49.24943" lon="-0.73259">
        <ele>76.08</ele>
        <time>2021-07-30T14:51:02Z</time>
      </trkpt>
      <trkpt lat="49.24934" lon="-0.73265">
        <ele>75.6</ele>
        <time>2021-07-30T14:51:03Z</time>
      </trkpt>
      <trkpt lat="49.24926" lon="-0.73271">
        <ele>75.12</ele>
        <time>2021-07-30T14:51:04Z</time>
      </trkpt>
      <trkpt lat="49.24917" lon="-0.73279">
        <ele>75.6</ele>
        <time>2021-07-30T14:51:05Z</time>
      </trkpt>
      <trkpt lat="49.24909" lon="-0.7329">
        <ele>76.56</ele>
        <time>2021-07-30T14:51:06Z</time>
      </trkpt>
      <trkpt lat="49.2482" lon="-0.73419">
        <ele>77.52</ele>
        <time>2021-07-30T14:51:14Z</time>
      </trkpt>
      <trkpt lat="49.24688" lon="-0.73631">
        <ele>78</ele>
        <time>2021-07-30T14:51:24Z</time>
      </trkpt>
      <trkpt lat="49.24551" lon="-0.73766">
        <ele>77.04</ele>
        <time>2021-07-30T14:51:32Z</time>
      </trkpt>
      <trkpt lat="49.24308" lon="-0.73908">
        <ele>68.87</ele>
        <time>2021-07-30T14:51:44Z</time>
      </trkpt>
      <trkpt lat="49.24178" lon="-0.74047">
        <ele>62.62</ele>
        <time>2021-07-30T14:51:51Z</time>
      </trkpt>
      <trkpt lat="49.2409" lon="-0.74235">
        <ele>57.82</ele>
        <time>2021-07-30T14:51:58Z</time>
      </trkpt>
      <trkpt lat="49.23991" lon="-0.74639">
        <ele>48.2</ele>
        <time>2021-07-30T14:52:10Z</time>
      </trkpt>
      <trkpt lat="49.23855" lon="-0.75215">
        <ele>40.03</ele>
        <time>2021-07-30T14:52:30Z</time>
      </trkpt>
      <trkpt lat="49.23774" lon="-0.75724">
        <ele>36.67</ele>
        <time>2021-07-30T14:52:45Z</time>
      </trkpt>
      <trkpt lat="49.23701" lon="-0.76071">
        <ele>37.15</ele>
        <time>2021-07-30T14:52:57Z</time>
      </trkpt>
      <trkpt lat="49.23587" lon="-0.76348">
        <ele>41.95</ele>
        <time>2021-07-30T14:53:07Z</time>
      </trkpt>
      <trkpt lat="49.23456" lon="-0.76548">
        <ele>43.4</ele>
        <time>2021-07-30T14:53:16Z</time>
      </trkpt>
      <trkpt lat="49.23349" lon="-0.76677">
        <ele>39.07</ele>
        <time>2021-07-30T14:53:24Z</time>
      </trkpt>
      <trkpt lat="49.23336" lon="-0.76702">
        <ele>39.07</ele>
        <time>2021-07-30T14:53:26Z</time>
      </trkpt>
      <trkpt lat="49.23332" lon="-0.76712">
        <ele>39.55</ele>
        <time>2021-07-30T14:53:27Z</time>
      </trkpt>
      <trkpt lat="49.23328" lon="-0.7672">
        <ele>39.55</ele>
        <time>2021-07-30T14:53:28Z</time>
      </trkpt>
      <trkpt lat="49.23326" lon="-0.76731">
        <ele>39.55</ele>
        <time>2021-07-30T14:53:29Z</time>
      </trkpt>
      <trkpt lat="49.2332" lon="-0.76744">
        <ele>39.55</ele>
        <time>2021-07-30T14:53:30Z</time>
      </trkpt>
      <trkpt lat="49.23315" lon="-0.76752">
        <ele>39.55</ele>
        <time>2021-07-30T14:53:31Z</time>
      </trkpt>
      <trkpt lat="49.23307" lon="-0.76755">
        <ele>39.55</ele>
        <time>2021-07-30T14:53:32Z</time>
      </trkpt>
      <trkpt lat="49.23304" lon="-0.76756">
        <ele>39.55</ele>
        <time>2021-07-30T14:53:33Z</time>
      </trkpt>
      <trkpt lat="49.23286" lon="-0.76754">
        <ele>40.03</ele>
        <time>2021-07-30T14:53:34Z</time>
      </trkpt>
      <trkpt lat="49.23279" lon="-0.76762">
        <ele>39.07</ele>
        <time>2021-07-30T14:53:35Z</time>
      </trkpt>
      <trkpt lat="49.2327" lon="-0.76772">
        <ele>38.11</ele>
        <time>2021-07-30T14:53:36Z</time>
      </trkpt>
      <trkpt lat="49.23179" lon="-0.76875">
        <ele>37.63</ele>
        <time>2021-07-30T14:53:44Z</time>
      </trkpt>
      <trkpt lat="49.23035" lon="-0.77043">
        <ele>40.03</ele>
        <time>2021-07-30T14:53:55Z</time>
      </trkpt>
      <trkpt lat="49.2287" lon="-0.77233">
        <ele>44.36</ele>
        <time>2021-07-30T14:54:11Z</time>
      </trkpt>
      <trkpt lat="49.22694" lon="-0.77451">
        <ele>52.05</ele>
        <time>2021-07-30T14:54:30Z</time>
      </trkpt>
      <trkpt lat="49.22688" lon="-0.77463">
        <ele>53.01</ele>
        <time>2021-07-30T14:54:31Z</time>
      </trkpt>
      <trkpt lat="49.22683" lon="-0.77477">
        <ele>54.45</ele>
        <time>2021-07-30T14:54:32Z</time>
      </trkpt>
      <trkpt lat="49.2262" lon="-0.77643">
        <ele>56.86</ele>
        <time>2021-07-30T14:54:43Z</time>
      </trkpt>
      <trkpt lat="49.22495" lon="-0.77883">
        <ele>57.34</ele>
        <time>2021-07-30T14:54:59Z</time>
      </trkpt>
      <trkpt lat="49.22262" lon="-0.78342">
        <ele>62.14</ele>
        <time>2021-07-30T14:55:29Z</time>
      </trkpt>
      <trkpt lat="49.22105" lon="-0.78655">
        <ele>66.95</ele>
        <time>2021-07-30T14:55:50Z</time>
      </trkpt>
      <trkpt lat="49.21959" lon="-0.78944">
        <ele>70.31</ele>
        <time>2021-07-30T14:56:10Z</time>
      </trkpt>
      <trkpt lat="49.21842" lon="-0.79174">
        <ele>75.6</ele>
        <time>2021-07-30T14:56:25Z</time>
      </trkpt>
      <trkpt lat="49.21704" lon="-0.79447">
        <ele>82.33</ele>
        <time>2021-07-30T14:56:43Z</time>
      </trkpt>
      <trkpt lat="49.21634" lon="-0.79595">
        <ele>85.69</ele>
        <time>2021-07-30T14:56:51Z</time>
      </trkpt>
      <trkpt lat="49.21569" lon="-0.79871">
        <ele>95.31</ele>
        <time>2021-07-30T14:57:03Z</time>
      </trkpt>
      <trkpt lat="49.21505" lon="-0.80149">
        <ele>95.31</ele>
        <time>2021-07-30T14:57:13Z</time>
      </trkpt>
      <trkpt lat="49.21399" lon="-0.80617">
        <ele>95.31</ele>
        <time>2021-07-30T14:57:28Z</time>
      </trkpt>
      <trkpt lat="49.21342" lon="-0.80884">
        <ele>102.04</ele>
        <time>2021-07-30T14:57:40Z</time>
      </trkpt>
      <trkpt lat="49.21261" lon="-0.81237">
        <ele>108.77</ele>
        <time>2021-07-30T14:57:54Z</time>
      </trkpt>
      <trkpt lat="49.21175" lon="-0.81612">
        <ele>108.77</ele>
        <time>2021-07-30T14:58:07Z</time>
      </trkpt>
      <trkpt lat="49.21072" lon="-0.82024">
        <ele>109.25</ele>
        <time>2021-07-30T14:58:21Z</time>
      </trkpt>
      <trkpt lat="49.20935" lon="-0.82552">
        <ele>115.5</ele>
        <time>2021-07-30T14:58:40Z</time>
      </trkpt>
      <trkpt lat="49.20809" lon="-0.83046">
        <ele>117.9</ele>
        <time>2021-07-30T14:58:57Z</time>
      </trkpt>
      <trkpt lat="49.2078" lon="-0.8316">
        <ele>112.61</ele>
        <time>2021-07-30T14:59:03Z</time>
      </trkpt>
      <trkpt lat="49.20732" lon="-0.83374">
        <ele>114.53</ele>
        <time>2021-07-30T14:59:15Z</time>
      </trkpt>
      <trkpt lat="49.20658" lon="-0.83717">
        <ele>118.38</ele>
        <time>2021-07-30T14:59:36Z</time>
      </trkpt>
      <trkpt lat="49.20599" lon="-0.83946">
        <ele>111.17</ele>
        <time>2021-07-30T14:59:50Z</time>
      </trkpt>
      <trkpt lat="49.20592" lon="-0.83959">
        <ele>110.21</ele>
        <time>2021-07-30T14:59:51Z</time>
      </trkpt>
      <trkpt lat="49.20496" lon="-0.84104">
        <ele>110.69</ele>
        <time>2021-07-30T15:00:02Z</time>
      </trkpt>
      <trkpt lat="49.20373" lon="-0.84314">
        <ele>116.46</ele>
        <time>2021-07-30T15:00:14Z</time>
      </trkpt>
      <trkpt lat="49.20184" lon="-0.84699">
        <ele>121.74</ele>
        <time>2021-07-30T15:00:32Z</time>
      </trkpt>
      <trkpt lat="49.20012" lon="-0.85053">
        <ele>114.05</ele>
        <time>2021-07-30T15:00:46Z</time>
      </trkpt>
      <trkpt lat="49.19818" lon="-0.85461">
        <ele>119.34</ele>
        <time>2021-07-30T15:01:03Z</time>
      </trkpt>
      <trkpt lat="49.19606" lon="-0.859">
        <ele>123.67</ele>
        <time>2021-07-30T15:01:20Z</time>
      </trkpt>
      <trkpt lat="49.19427" lon="-0.86277">
        <ele>129.43</ele>
        <time>2021-07-30T15:01:35Z</time>
      </trkpt>
      <trkpt lat="49.19378" lon="-0.86384">
        <ele>129.43</ele>
        <time>2021-07-30T15:01:42Z</time>
      </trkpt>
      <trkpt lat="49.19374" lon="-0.86404">
        <ele>130.4</ele>
        <time>2021-07-30T15:01:43Z</time>
      </trkpt>
      <trkpt lat="49.19373" lon="-0.86412">
        <ele>130.88</ele>
        <time>2021-07-30T15:01:44Z</time>
      </trkpt>
      <trkpt lat="49.19375" lon="-0.86422">
        <ele>131.36</ele>
        <time>2021-07-30T15:01:45Z</time>
      </trkpt>
      <trkpt lat="49.19376" lon="-0.86433">
        <ele>132.32</ele>
        <time>2021-07-30T15:01:47Z</time>
      </trkpt>
      <trkpt lat="49.19377" lon="-0.86447">
        <ele>132.8</ele>
        <time>2021-07-30T15:01:48Z</time>
      </trkpt>
      <trkpt lat="49.19375" lon="-0.86457">
        <ele>132.8</ele>
        <time>2021-07-30T15:01:49Z</time>
      </trkpt>
      <trkpt lat="49.19373" lon="-0.86467">
        <ele>132.8</ele>
        <time>2021-07-30T15:01:50Z</time>
      </trkpt>
      <trkpt lat="49.19365" lon="-0.86476">
        <ele>132.8</ele>
        <time>2021-07-30T15:01:51Z</time>
      </trkpt>
      <trkpt lat="49.1936" lon="-0.86481">
        <ele>133.28</ele>
        <time>2021-07-30T15:01:52Z</time>
      </trkpt>
      <trkpt lat="49.19345" lon="-0.86482">
        <ele>133.28</ele>
        <time>2021-07-30T15:01:53Z</time>
      </trkpt>
      <trkpt lat="49.19331" lon="-0.86481">
        <ele>133.28</ele>
        <time>2021-07-30T15:01:54Z</time>
      </trkpt>
      <trkpt lat="49.19326" lon="-0.8649">
        <ele>133.28</ele>
        <time>2021-07-30T15:01:55Z</time>
      </trkpt>
      <trkpt lat="49.19326" lon="-0.8649">
        <ele>131.36</ele>
        <time>2021-07-30T15:01:56Z</time>
      </trkpt>
      <trkpt lat="49.19314" lon="-0.8651">
        <ele>131.36</ele>
        <time>2021-07-30T15:01:57Z</time>
      </trkpt>
      <trkpt lat="49.19314" lon="-0.8651">
        <ele>131.36</ele>
        <time>2021-07-30T15:01:58Z</time>
      </trkpt>
      <trkpt lat="49.19243" lon="-0.86658">
        <ele>132.32</ele>
        <time>2021-07-30T15:02:07Z</time>
      </trkpt>
      <trkpt lat="49.19131" lon="-0.8689">
        <ele>130.88</ele>
        <time>2021-07-30T15:02:18Z</time>
      </trkpt>
      <trkpt lat="49.18983" lon="-0.87196">
        <ele>128.95</ele>
        <time>2021-07-30T15:02:30Z</time>
      </trkpt>
      <trkpt lat="49.18786" lon="-0.87602">
        <ele>129.43</ele>
        <time>2021-07-30T15:02:46Z</time>
      </trkpt>
      <trkpt lat="49.18463" lon="-0.88272">
        <ele>127.03</ele>
        <time>2021-07-30T15:03:10Z</time>
      </trkpt>
      <trkpt lat="49.18207" lon="-0.88802">
        <ele>123.19</ele>
        <time>2021-07-30T15:03:28Z</time>
      </trkpt>
      <trkpt lat="49.18015" lon="-0.89202">
        <ele>123.67</ele>
        <time>2021-07-30T15:03:42Z</time>
      </trkpt>
      <trkpt lat="49.1779" lon="-0.89639">
        <ele>129.43</ele>
        <time>2021-07-30T15:03:59Z</time>
      </trkpt>
      <trkpt lat="49.1756" lon="-0.90043">
        <ele>129.43</ele>
        <time>2021-07-30T15:04:17Z</time>
      </trkpt>
      <trkpt lat="49.17381" lon="-0.90356">
        <ele>131.84</ele>
        <time>2021-07-30T15:04:31Z</time>
      </trkpt>
      <trkpt lat="49.17119" lon="-0.90816">
        <ele>134.24</ele>
        <time>2021-07-30T15:04:51Z</time>
      </trkpt>
      <trkpt lat="49.16987" lon="-0.91048">
        <ele>131.36</ele>
        <time>2021-07-30T15:05:02Z</time>
      </trkpt>
      <trkpt lat="49.16807" lon="-0.91365">
        <ele>130.88</ele>
        <time>2021-07-30T15:05:17Z</time>
      </trkpt>
      <trkpt lat="49.16609" lon="-0.91713">
        <ele>128.47</ele>
        <time>2021-07-30T15:05:32Z</time>
      </trkpt>
      <trkpt lat="49.16539" lon="-0.91833">
        <ele>126.55</ele>
        <time>2021-07-30T15:05:39Z</time>
      </trkpt>
      <trkpt lat="49.16531" lon="-0.91848">
        <ele>124.15</ele>
        <time>2021-07-30T15:05:41Z</time>
      </trkpt>
      <trkpt lat="49.16528" lon="-0.91853">
        <ele>123.19</ele>
        <time>2021-07-30T15:05:42Z</time>
      </trkpt>
      <trkpt lat="49.16526" lon="-0.91857">
        <ele>122.22</ele>
        <time>2021-07-30T15:05:43Z</time>
      </trkpt>
      <trkpt lat="49.16524" lon="-0.91859">
        <ele>118.86</ele>
        <time>2021-07-30T15:05:56Z</time>
      </trkpt>
      <trkpt lat="49.16524" lon="-0.91859">
        <ele>119.34</ele>
        <time>2021-07-30T15:11:03Z</time>
      </trkpt>
      <trkpt lat="49.16524" lon="-0.91859">
        <ele>119.82</ele>
        <time>2021-07-30T15:12:02Z</time>
      </trkpt>
      <trkpt lat="49.16524" lon="-0.91859">
        <ele>119.82</ele>
        <time>2021-07-30T15:13:20Z</time>
      </trkpt>
      <trkpt lat="49.16524" lon="-0.91859">
        <ele>119.82</ele>
        <time>2021-07-30T15:14:17Z</time>
      </trkpt>
      <trkpt lat="49.16524" lon="-0.91859">
        <ele>119.82</ele>
        <time>2021-07-30T15:15:29Z</time>
      </trkpt>
      <trkpt lat="49.16524" lon="-0.91859">
        <ele>119.82</ele>
        <time>2021-07-30T15:16:48Z</time>
      </trkpt>
      <trkpt lat="49.16524" lon="-0.91859">
        <ele>119.82</ele>
        <time>2021-07-30T15:19:01Z</time>
      </trkpt>
      <trkpt lat="49.16524" lon="-0.91859">
        <ele>119.82</ele>
        <time>2021-07-30T15:21:06Z</time>
      </trkpt>
      <trkpt lat="49.16524" lon="-0.91859">
        <ele>119.82</ele>
        <time>2021-07-30T15:22:25Z</time>
      </trkpt>
      <trkpt lat="49.16524" lon="-0.91859">
        <ele>119.82</ele>
        <time>2021-07-30T15:23:52Z</time>
      </trkpt>
      <trkpt lat="49.16524" lon="-0.91859">
        <ele>120.3</ele>
        <time>2021-07-30T15:25:09Z</time>
      </trkpt>
      <trkpt lat="49.16524" lon="-0.91859">
        <ele>119.82</ele>
        <time>2021-07-30T15:26:47Z</time>
      </trkpt>
      <trkpt lat="49.16524" lon="-0.91859">
        <ele>120.3</ele>
        <time>2021-07-30T15:28:13Z</time>
      </trkpt>
      <trkpt lat="49.16524" lon="-0.91859">
        <ele>120.3</ele>
        <time>2021-07-30T15:29:33Z</time>
      </trkpt>
      <trkpt lat="49.16524" lon="-0.91859">
        <ele>120.3</ele>
        <time>2021-07-30T15:32:11Z</time>
      </trkpt>
      <trkpt lat="49.16524" lon="-0.91859">
        <ele>120.3</ele>
        <time>2021-07-30T15:34:05Z</time>
      </trkpt>
      <trkpt lat="49.16524" lon="-0.91859">
        <ele>120.3</ele>
        <time>2021-07-30T15:35:32Z</time>
      </trkpt>
      <trkpt lat="49.16524" lon="-0.91859">
        <ele>119.82</ele>
        <time>2021-07-30T15:36:59Z</time>
      </trkpt>
      <trkpt lat="49.16524" lon="-0.91859">
        <ele>119.82</ele>
        <time>2021-07-30T15:38:52Z</time>
      </trkpt>
      <trkpt lat="49.16524" lon="-0.91859">
        <ele>119.82</ele>
        <time>2021-07-30T15:40:22Z</time>
      </trkpt>
      <trkpt lat="49.16524" lon="-0.91859">
        <ele>119.82</ele>
        <time>2021-07-30T15:41:48Z</time>
      </trkpt>
      <trkpt lat="49.16524" lon="-0.91859">
        <ele>119.34</ele>
        <time>2021-07-30T15:43:12Z</time>
      </trkpt>
      <trkpt lat="49.16524" lon="-0.91859">
        <ele>119.34</ele>
        <time>2021-07-30T15:44:37Z</time>
      </trkpt>
      <trkpt lat="49.16524" lon="-0.91859">
        <ele>119.34</ele>
        <time>2021-07-30T15:46:01Z</time>
      </trkpt>
      <trkpt lat="49.16524" lon="-0.91859">
        <ele>118.86</ele>
        <time>2021-07-30T15:48:07Z</time>
      </trkpt>
      <trkpt lat="49.16524" lon="-0.91859">
        <ele>118.86</ele>
        <time>2021-07-30T15:50:02Z</time>
      </trkpt>
      <trkpt lat="49.16524" lon="-0.91859">
        <ele>118.38</ele>
        <time>2021-07-30T15:51:34Z</time>
      </trkpt>
      <trkpt lat="49.1651" lon="-0.91885">
        <ele>118.86</ele>
        <time>2021-07-30T15:51:45Z</time>
      </trkpt>
      <trkpt lat="49.1646" lon="-0.9197">
        <ele>120.78</ele>
        <time>2021-07-30T15:51:54Z</time>
      </trkpt>
      <trkpt lat="49.16351" lon="-0.92159">
        <ele>121.74</ele>
        <time>2021-07-30T15:52:08Z</time>
      </trkpt>
      <trkpt lat="49.16233" lon="-0.92364">
        <ele>127.03</ele>
        <time>2021-07-30T15:52:20Z</time>
      </trkpt>
      <trkpt lat="49.16036" lon="-0.92701">
        <ele>131.84</ele>
        <time>2021-07-30T15:52:39Z</time>
      </trkpt>
      <trkpt lat="49.15916" lon="-0.92901">
        <ele>132.8</ele>
        <time>2021-07-30T15:52:52Z</time>
      </trkpt>
      <trkpt lat="49.15753" lon="-0.93175">
        <ele>125.11</ele>
        <time>2021-07-30T15:53:11Z</time>
      </trkpt>
      <trkpt lat="49.15616" lon="-0.93412">
        <ele>120.3</ele>
        <time>2021-07-30T15:53:25Z</time>
      </trkpt>
      <trkpt lat="49.1539" lon="-0.93823">
        <ele>111.17</ele>
        <time>2021-07-30T15:53:46Z</time>
      </trkpt>
      <trkpt lat="49.15187" lon="-0.94191">
        <ele>103.96</ele>
        <time>2021-07-30T15:54:05Z</time>
      </trkpt>
      <trkpt lat="49.14987" lon="-0.94551">
        <ele>96.27</ele>
        <time>2021-07-30T15:54:22Z</time>
      </trkpt>
      <trkpt lat="49.14749" lon="-0.94906">
        <ele>78.97</ele>
        <time>2021-07-30T15:54:40Z</time>
      </trkpt>
      <trkpt lat="49.14532" lon="-0.9523">
        <ele>83.77</ele>
        <time>2021-07-30T15:54:56Z</time>
      </trkpt>
      <trkpt lat="49.14302" lon="-0.95574">
        <ele>103</ele>
        <time>2021-07-30T15:55:14Z</time>
      </trkpt>
      <trkpt lat="49.14108" lon="-0.9586">
        <ele>118.86</ele>
        <time>2021-07-30T15:55:31Z</time>
      </trkpt>
      <trkpt lat="49.13861" lon="-0.9624">
        <ele>136.16</ele>
        <time>2021-07-30T15:55:51Z</time>
      </trkpt>
      <trkpt lat="49.1378" lon="-0.96504">
        <ele>146.74</ele>
        <time>2021-07-30T15:56:01Z</time>
      </trkpt>
      <trkpt lat="49.13657" lon="-0.96989">
        <ele>153.95</ele>
        <time>2021-07-30T15:56:20Z</time>
      </trkpt>
      <trkpt lat="49.13512" lon="-0.97536">
        <ele>153.95</ele>
        <time>2021-07-30T15:56:39Z</time>
      </trkpt>
      <trkpt lat="49.13417" lon="-0.97903">
        <ele>152.99</ele>
        <time>2021-07-30T15:56:53Z</time>
      </trkpt>
      <trkpt lat="49.13274" lon="-0.98471">
        <ele>154.91</ele>
        <time>2021-07-30T15:57:11Z</time>
      </trkpt>
      <trkpt lat="49.13102" lon="-0.99123">
        <ele>163.08</ele>
        <time>2021-07-30T15:57:32Z</time>
      </trkpt>
      <trkpt lat="49.13011" lon="-0.99447">
        <ele>169.81</ele>
        <time>2021-07-30T15:57:44Z</time>
      </trkpt>
      <trkpt lat="49.12886" lon="-0.99915">
        <ele>165</ele>
        <time>2021-07-30T15:58:01Z</time>
      </trkpt>
      <trkpt lat="49.12732" lon="-1.00475">
        <ele>147.7</ele>
        <time>2021-07-30T15:58:22Z</time>
      </trkpt>
      <trkpt lat="49.1261" lon="-1.00915">
        <ele>140.01</ele>
        <time>2021-07-30T15:58:38Z</time>
      </trkpt>
      <trkpt lat="49.1247" lon="-1.0143">
        <ele>128.47</ele>
        <time>2021-07-30T15:58:57Z</time>
      </trkpt>
      <trkpt lat="49.12306" lon="-1.02026">
        <ele>122.71</ele>
        <time>2021-07-30T15:59:19Z</time>
      </trkpt>
      <trkpt lat="49.12146" lon="-1.02585">
        <ele>115.5</ele>
        <time>2021-07-30T15:59:40Z</time>
      </trkpt>
      <trkpt lat="49.11954" lon="-1.03223">
        <ele>105.4</ele>
        <time>2021-07-30T16:00:04Z</time>
      </trkpt>
      <trkpt lat="49.11817" lon="-1.03681">
        <ele>107.32</ele>
        <time>2021-07-30T16:00:23Z</time>
      </trkpt>
      <trkpt lat="49.1173" lon="-1.03974">
        <ele>111.17</ele>
        <time>2021-07-30T16:00:36Z</time>
      </trkpt>
      <trkpt lat="49.11697" lon="-1.04071">
        <ele>109.73</ele>
        <time>2021-07-30T16:00:43Z</time>
      </trkpt>
      <trkpt lat="49.11695" lon="-1.04083">
        <ele>109.25</ele>
        <time>2021-07-30T16:00:45Z</time>
      </trkpt>
      <trkpt lat="49.11694" lon="-1.04089">
        <ele>109.25</ele>
        <time>2021-07-30T16:00:46Z</time>
      </trkpt>
      <trkpt lat="49.11694" lon="-1.04097">
        <ele>109.73</ele>
        <time>2021-07-30T16:00:47Z</time>
      </trkpt>
      <trkpt lat="49.11693" lon="-1.04105">
        <ele>109.73</ele>
        <time>2021-07-30T16:00:48Z</time>
      </trkpt>
      <trkpt lat="49.11691" lon="-1.04114">
        <ele>109.73</ele>
        <time>2021-07-30T16:00:49Z</time>
      </trkpt>
      <trkpt lat="49.11689" lon="-1.04136">
        <ele>109.73</ele>
        <time>2021-07-30T16:00:50Z</time>
      </trkpt>
      <trkpt lat="49.11688" lon="-1.04148">
        <ele>109.73</ele>
        <time>2021-07-30T16:00:52Z</time>
      </trkpt>
      <trkpt lat="49.11685" lon="-1.04174">
        <ele>109.25</ele>
        <time>2021-07-30T16:00:54Z</time>
      </trkpt>
      <trkpt lat="49.11684" lon="-1.04188">
        <ele>109.73</ele>
        <time>2021-07-30T16:00:55Z</time>
      </trkpt>
      <trkpt lat="49.11669" lon="-1.04376">
        <ele>107.32</ele>
        <time>2021-07-30T16:01:05Z</time>
      </trkpt>
      <trkpt lat="49.1166" lon="-1.0468">
        <ele>103.48</ele>
        <time>2021-07-30T16:01:17Z</time>
      </trkpt>
      <trkpt lat="49.11646" lon="-1.05217">
        <ele>97.71</ele>
        <time>2021-07-30T16:01:36Z</time>
      </trkpt>
      <trkpt lat="49.11644" lon="-1.05373">
        <ele>97.23</ele>
        <time>2021-07-30T16:01:43Z</time>
      </trkpt>
      <trkpt lat="49.11643" lon="-1.05431">
        <ele>96.27</ele>
        <time>2021-07-30T16:01:47Z</time>
      </trkpt>
      <trkpt lat="49.11642" lon="-1.05441">
        <ele>96.27</ele>
        <time>2021-07-30T16:01:48Z</time>
      </trkpt>
      <trkpt lat="49.11642" lon="-1.05445">
        <ele>96.75</ele>
        <time>2021-07-30T16:01:49Z</time>
      </trkpt>
      <trkpt lat="49.11651" lon="-1.05457">
        <ele>96.75</ele>
        <time>2021-07-30T16:01:50Z</time>
      </trkpt>
      <trkpt lat="49.11642" lon="-1.05473">
        <ele>96.75</ele>
        <time>2021-07-30T16:01:51Z</time>
      </trkpt>
      <trkpt lat="49.11642" lon="-1.05473">
        <ele>96.75</ele>
        <time>2021-07-30T16:01:52Z</time>
      </trkpt>
      <trkpt lat="49.11642" lon="-1.05481">
        <ele>96.75</ele>
        <time>2021-07-30T16:01:53Z</time>
      </trkpt>
      <trkpt lat="49.11642" lon="-1.0549">
        <ele>96.75</ele>
        <time>2021-07-30T16:01:54Z</time>
      </trkpt>
      <trkpt lat="49.11642" lon="-1.055">
        <ele>97.23</ele>
        <time>2021-07-30T16:01:55Z</time>
      </trkpt>
      <trkpt lat="49.11633" lon="-1.05659">
        <ele>94.35</ele>
        <time>2021-07-30T16:02:05Z</time>
      </trkpt>
      <trkpt lat="49.11622" lon="-1.05984">
        <ele>90.5</ele>
        <time>2021-07-30T16:02:24Z</time>
      </trkpt>
      <trkpt lat="49.11614" lon="-1.06285">
        <ele>84.73</ele>
        <time>2021-07-30T16:02:41Z</time>
      </trkpt>
      <trkpt lat="49.11607" lon="-1.06494">
        <ele>80.89</ele>
        <time>2021-07-30T16:02:55Z</time>
      </trkpt>
      <trkpt lat="49.11596" lon="-1.06898">
        <ele>75.12</ele>
        <time>2021-07-30T16:03:17Z</time>
      </trkpt>
      <trkpt lat="49.11584" lon="-1.07233">
        <ele>71.27</ele>
        <time>2021-07-30T16:03:36Z</time>
      </trkpt>
      <trkpt lat="49.11577" lon="-1.07387">
        <ele>70.79</ele>
        <time>2021-07-30T16:03:48Z</time>
      </trkpt>
      <trkpt lat="49.11575" lon="-1.07428">
        <ele>70.79</ele>
        <time>2021-07-30T16:03:53Z</time>
      </trkpt>
      <trkpt lat="49.1157" lon="-1.07444">
        <ele>70.31</ele>
        <time>2021-07-30T16:03:54Z</time>
      </trkpt>
      <trkpt lat="49.11575" lon="-1.07469">
        <ele>70.31</ele>
        <time>2021-07-30T16:03:56Z</time>
      </trkpt>
      <trkpt lat="49.11578" lon="-1.07481">
        <ele>70.31</ele>
        <time>2021-07-30T16:03:57Z</time>
      </trkpt>
      <trkpt lat="49.11571" lon="-1.07695">
        <ele>65.99</ele>
        <time>2021-07-30T16:04:10Z</time>
      </trkpt>
      <trkpt lat="49.11565" lon="-1.07877">
        <ele>63.58</ele>
        <time>2021-07-30T16:04:22Z</time>
      </trkpt>
      <trkpt lat="49.11565" lon="-1.07877">
        <ele>64.07</ele>
        <time>2021-07-30T16:04:43Z</time>
      </trkpt>
      <trkpt lat="49.11564" lon="-1.07912">
        <ele>63.58</ele>
        <time>2021-07-30T16:04:50Z</time>
      </trkpt>
      <trkpt lat="49.1156" lon="-1.08078">
        <ele>60.7</ele>
        <time>2021-07-30T16:05:02Z</time>
      </trkpt>
      <trkpt lat="49.11554" lon="-1.0825">
        <ele>57.82</ele>
        <time>2021-07-30T16:05:14Z</time>
      </trkpt>
      <trkpt lat="49.11556" lon="-1.08267">
        <ele>57.34</ele>
        <time>2021-07-30T16:05:16Z</time>
      </trkpt>
      <trkpt lat="49.1156" lon="-1.08282">
        <ele>56.37</ele>
        <time>2021-07-30T16:05:19Z</time>
      </trkpt>
      <trkpt lat="49.1156" lon="-1.0829">
        <ele>56.37</ele>
        <time>2021-07-30T16:05:20Z</time>
      </trkpt>
      <trkpt lat="49.11552" lon="-1.08299">
        <ele>55.89</ele>
        <time>2021-07-30T16:05:21Z</time>
      </trkpt>
      <trkpt lat="49.11552" lon="-1.08299">
        <ele>55.89</ele>
        <time>2021-07-30T16:05:22Z</time>
      </trkpt>
      <trkpt lat="49.1155" lon="-1.08301">
        <ele>55.89</ele>
        <time>2021-07-30T16:05:23Z</time>
      </trkpt>
      <trkpt lat="49.11539" lon="-1.08308">
        <ele>55.89</ele>
        <time>2021-07-30T16:05:24Z</time>
      </trkpt>
      <trkpt lat="49.11537" lon="-1.08316">
        <ele>55.41</ele>
        <time>2021-07-30T16:05:25Z</time>
      </trkpt>
      <trkpt lat="49.11534" lon="-1.08324">
        <ele>55.41</ele>
        <time>2021-07-30T16:05:26Z</time>
      </trkpt>
      <trkpt lat="49.11512" lon="-1.08451">
        <ele>53.49</ele>
        <time>2021-07-30T16:05:36Z</time>
      </trkpt>
      <trkpt lat="49.11503" lon="-1.08691">
        <ele>49.16</ele>
        <time>2021-07-30T16:05:55Z</time>
      </trkpt>
      <trkpt lat="49.11499" lon="-1.08825">
        <ele>46.28</ele>
        <time>2021-07-30T16:06:08Z</time>
      </trkpt>
      <trkpt lat="49.11499" lon="-1.08831">
        <ele>46.28</ele>
        <time>2021-07-30T16:06:22Z</time>
      </trkpt>
      <trkpt lat="49.11499" lon="-1.08849">
        <ele>45.8</ele>
        <time>2021-07-30T16:07:05Z</time>
      </trkpt>
      <trkpt lat="49.11498" lon="-1.08874">
        <ele>45.8</ele>
        <time>2021-07-30T16:07:54Z</time>
      </trkpt>
      <trkpt lat="49.11498" lon="-1.08874">
        <ele>45.8</ele>
        <time>2021-07-30T16:08:10Z</time>
      </trkpt>
      <trkpt lat="49.11496" lon="-1.08911">
        <ele>45.32</ele>
        <time>2021-07-30T16:08:24Z</time>
      </trkpt>
      <trkpt lat="49.11496" lon="-1.08925">
        <ele>45.32</ele>
        <time>2021-07-30T16:08:38Z</time>
      </trkpt>
      <trkpt lat="49.11495" lon="-1.08947">
        <ele>44.84</ele>
        <time>2021-07-30T16:09:09Z</time>
      </trkpt>
      <trkpt lat="49.11492" lon="-1.09032">
        <ele>41.47</ele>
        <time>2021-07-30T16:09:22Z</time>
      </trkpt>
      <trkpt lat="49.1149" lon="-1.09185">
        <ele>36.19</ele>
        <time>2021-07-30T16:09:37Z</time>
      </trkpt>
      <trkpt lat="49.11475" lon="-1.09303">
        <ele>30.42</ele>
        <time>2021-07-30T16:09:50Z</time>
      </trkpt>
      <trkpt lat="49.11457" lon="-1.09413">
        <ele>26.57</ele>
        <time>2021-07-30T16:10:04Z</time>
      </trkpt>
      <trkpt lat="49.1146" lon="-1.09501">
        <ele>25.61</ele>
        <time>2021-07-30T16:10:16Z</time>
      </trkpt>
      <trkpt lat="49.11462" lon="-1.09556">
        <ele>24.17</ele>
        <time>2021-07-30T16:10:26Z</time>
      </trkpt>
      <trkpt lat="49.11456" lon="-1.09681">
        <ele>22.25</ele>
        <time>2021-07-30T16:10:40Z</time>
      </trkpt>
      <trkpt lat="49.1145" lon="-1.09784">
        <ele>20.81</ele>
        <time>2021-07-30T16:10:50Z</time>
      </trkpt>
      <trkpt lat="49.1145" lon="-1.09793">
        <ele>20.81</ele>
        <time>2021-07-30T16:10:51Z</time>
      </trkpt>
      <trkpt lat="49.1145" lon="-1.098">
        <ele>21.29</ele>
        <time>2021-07-30T16:10:52Z</time>
      </trkpt>
      <trkpt lat="49.11451" lon="-1.09808">
        <ele>21.29</ele>
        <time>2021-07-30T16:10:53Z</time>
      </trkpt>
      <trkpt lat="49.11451" lon="-1.09814">
        <ele>21.29</ele>
        <time>2021-07-30T16:10:54Z</time>
      </trkpt>
      <trkpt lat="49.1146" lon="-1.09818">
        <ele>21.77</ele>
        <time>2021-07-30T16:10:55Z</time>
      </trkpt>
      <trkpt lat="49.11464" lon="-1.09824">
        <ele>21.77</ele>
        <time>2021-07-30T16:10:56Z</time>
      </trkpt>
      <trkpt lat="49.11467" lon="-1.0983">
        <ele>21.77</ele>
        <time>2021-07-30T16:10:57Z</time>
      </trkpt>
      <trkpt lat="49.11467" lon="-1.0984">
        <ele>21.77</ele>
        <time>2021-07-30T16:10:58Z</time>
      </trkpt>
      <trkpt lat="49.11466" lon="-1.09846">
        <ele>21.29</ele>
        <time>2021-07-30T16:10:59Z</time>
      </trkpt>
      <trkpt lat="49.11462" lon="-1.0985">
        <ele>21.77</ele>
        <time>2021-07-30T16:11:00Z</time>
      </trkpt>
      <trkpt lat="49.11458" lon="-1.09855">
        <ele>21.77</ele>
        <time>2021-07-30T16:11:01Z</time>
      </trkpt>
      <trkpt lat="49.11453" lon="-1.09856">
        <ele>21.29</ele>
        <time>2021-07-30T16:11:02Z</time>
      </trkpt>
      <trkpt lat="49.11451" lon="-1.09855">
        <ele>21.29</ele>
        <time>2021-07-30T16:11:03Z</time>
      </trkpt>
      <trkpt lat="49.1144" lon="-1.09846">
        <ele>20.81</ele>
        <time>2021-07-30T16:11:04Z</time>
      </trkpt>
      <trkpt lat="49.11435" lon="-1.09849">
        <ele>20.81</ele>
        <time>2021-07-30T16:11:05Z</time>
      </trkpt>
      <trkpt lat="49.1143" lon="-1.09852">
        <ele>20.32</ele>
        <time>2021-07-30T16:11:06Z</time>
      </trkpt>
      <trkpt lat="49.11424" lon="-1.09856">
        <ele>20.81</ele>
        <time>2021-07-30T16:11:07Z</time>
      </trkpt>
      <trkpt lat="49.11418" lon="-1.0986">
        <ele>20.32</ele>
        <time>2021-07-30T16:11:08Z</time>
      </trkpt>
      <trkpt lat="49.11412" lon="-1.09867">
        <ele>20.32</ele>
        <time>2021-07-30T16:11:09Z</time>
      </trkpt>
      <trkpt lat="49.11381" lon="-1.09904">
        <ele>20.81</ele>
        <time>2021-07-30T16:11:14Z</time>
      </trkpt>
      <trkpt lat="49.11337" lon="-1.09964">
        <ele>20.32</ele>
        <time>2021-07-30T16:11:22Z</time>
      </trkpt>
      <trkpt lat="49.11331" lon="-1.09973">
        <ele>20.32</ele>
        <time>2021-07-30T16:11:23Z</time>
      </trkpt>
      <trkpt lat="49.1125" lon="-1.10082">
        <ele>22.25</ele>
        <time>2021-07-30T16:11:32Z</time>
      </trkpt>
      <trkpt lat="49.11031" lon="-1.1038">
        <ele>37.15</ele>
        <time>2021-07-30T16:11:55Z</time>
      </trkpt>
      <trkpt lat="49.10824" lon="-1.10658">
        <ele>38.11</ele>
        <time>2021-07-30T16:12:15Z</time>
      </trkpt>
      <trkpt lat="49.10741" lon="-1.10771">
        <ele>43.88</ele>
        <time>2021-07-30T16:12:26Z</time>
      </trkpt>
      <trkpt lat="49.10643" lon="-1.10902">
        <ele>44.36</ele>
        <time>2021-07-30T16:12:40Z</time>
      </trkpt>
      <trkpt lat="49.10627" lon="-1.10925">
        <ele>44.36</ele>
        <time>2021-07-30T16:12:44Z</time>
      </trkpt>
      <trkpt lat="49.1062" lon="-1.10935">
        <ele>44.84</ele>
        <time>2021-07-30T16:12:46Z</time>
      </trkpt>
      <trkpt lat="49.10617" lon="-1.1094">
        <ele>44.36</ele>
        <time>2021-07-30T16:12:47Z</time>
      </trkpt>
      <trkpt lat="49.10566" lon="-1.11009">
        <ele>43.4</ele>
        <time>2021-07-30T16:12:55Z</time>
      </trkpt>
      <trkpt lat="49.1046" lon="-1.11155">
        <ele>49.65</ele>
        <time>2021-07-30T16:13:05Z</time>
      </trkpt>
      <trkpt lat="49.10353" lon="-1.113">
        <ele>53.49</ele>
        <time>2021-07-30T16:13:16Z</time>
      </trkpt>
      <trkpt lat="49.1033" lon="-1.11341">
        <ele>55.41</ele>
        <time>2021-07-30T16:13:22Z</time>
      </trkpt>
      <trkpt lat="49.10328" lon="-1.11344">
        <ele>55.41</ele>
        <time>2021-07-30T16:13:23Z</time>
      </trkpt>
      <trkpt lat="49.10327" lon="-1.11348">
        <ele>55.41</ele>
        <time>2021-07-30T16:13:24Z</time>
      </trkpt>
      <trkpt lat="49.10322" lon="-1.11361">
        <ele>55.89</ele>
        <time>2021-07-30T16:13:26Z</time>
      </trkpt>
      <trkpt lat="49.10321" lon="-1.11369">
        <ele>55.89</ele>
        <time>2021-07-30T16:13:27Z</time>
      </trkpt>
      <trkpt lat="49.10314" lon="-1.11375">
        <ele>55.89</ele>
        <time>2021-07-30T16:13:28Z</time>
      </trkpt>
      <trkpt lat="49.10294" lon="-1.11383">
        <ele>56.86</ele>
        <time>2021-07-30T16:13:31Z</time>
      </trkpt>
      <trkpt lat="49.10288" lon="-1.11391">
        <ele>57.34</ele>
        <time>2021-07-30T16:13:32Z</time>
      </trkpt>
      <trkpt lat="49.10223" lon="-1.11477">
        <ele>59.26</ele>
        <time>2021-07-30T16:13:41Z</time>
      </trkpt>
      <trkpt lat="49.10178" lon="-1.11543">
        <ele>59.74</ele>
        <time>2021-07-30T16:13:54Z</time>
      </trkpt>
      <trkpt lat="49.10159" lon="-1.11589">
        <ele>58.78</ele>
        <time>2021-07-30T16:14:08Z</time>
      </trkpt>
      <trkpt lat="49.10159" lon="-1.11613">
        <ele>58.3</ele>
        <time>2021-07-30T16:14:10Z</time>
      </trkpt>
      <trkpt lat="49.10159" lon="-1.11613">
        <ele>58.3</ele>
        <time>2021-07-30T16:14:11Z</time>
      </trkpt>
      <trkpt lat="49.10158" lon="-1.11621">
        <ele>58.3</ele>
        <time>2021-07-30T16:14:12Z</time>
      </trkpt>
      <trkpt lat="49.10156" lon="-1.1163">
        <ele>58.3</ele>
        <time>2021-07-30T16:14:13Z</time>
      </trkpt>
      <trkpt lat="49.10147" lon="-1.11645">
        <ele>57.82</ele>
        <time>2021-07-30T16:14:14Z</time>
      </trkpt>
      <trkpt lat="49.10147" lon="-1.11645">
        <ele>57.82</ele>
        <time>2021-07-30T16:14:15Z</time>
      </trkpt>
      <trkpt lat="49.10142" lon="-1.1165">
        <ele>57.82</ele>
        <time>2021-07-30T16:14:16Z</time>
      </trkpt>
      <trkpt lat="49.10136" lon="-1.11653">
        <ele>58.3</ele>
        <time>2021-07-30T16:14:17Z</time>
      </trkpt>
      <trkpt lat="49.10131" lon="-1.11655">
        <ele>58.3</ele>
        <time>2021-07-30T16:14:18Z</time>
      </trkpt>
      <trkpt lat="49.10125" lon="-1.11653">
        <ele>58.3</ele>
        <time>2021-07-30T16:14:19Z</time>
      </trkpt>
      <trkpt lat="49.10119" lon="-1.1165">
        <ele>58.3</ele>
        <time>2021-07-30T16:14:20Z</time>
      </trkpt>
      <trkpt lat="49.10114" lon="-1.11649">
        <ele>58.3</ele>
        <time>2021-07-30T16:14:21Z</time>
      </trkpt>
      <trkpt lat="49.1011" lon="-1.11642">
        <ele>58.3</ele>
        <time>2021-07-30T16:14:22Z</time>
      </trkpt>
      <trkpt lat="49.10106" lon="-1.11635">
        <ele>58.3</ele>
        <time>2021-07-30T16:14:23Z</time>
      </trkpt>
      <trkpt lat="49.10101" lon="-1.11628">
        <ele>58.3</ele>
        <time>2021-07-30T16:14:24Z</time>
      </trkpt>
      <trkpt lat="49.10098" lon="-1.1162">
        <ele>58.3</ele>
        <time>2021-07-30T16:14:25Z</time>
      </trkpt>
      <trkpt lat="49.10097" lon="-1.11611">
        <ele>58.3</ele>
        <time>2021-07-30T16:14:26Z</time>
      </trkpt>
      <trkpt lat="49.10099" lon="-1.116">
        <ele>58.78</ele>
        <time>2021-07-30T16:14:27Z</time>
      </trkpt>
      <trkpt lat="49.101" lon="-1.1159">
        <ele>58.78</ele>
        <time>2021-07-30T16:14:28Z</time>
      </trkpt>
      <trkpt lat="49.10106" lon="-1.11571">
        <ele>58.78</ele>
        <time>2021-07-30T16:14:29Z</time>
      </trkpt>
      <trkpt lat="49.10106" lon="-1.11571">
        <ele>58.78</ele>
        <time>2021-07-30T16:14:30Z</time>
      </trkpt>
      <trkpt lat="49.10112" lon="-1.11563">
        <ele>58.78</ele>
        <time>2021-07-30T16:14:31Z</time>
      </trkpt>
      <trkpt lat="49.10119" lon="-1.11559">
        <ele>58.78</ele>
        <time>2021-07-30T16:14:32Z</time>
      </trkpt>
      <trkpt lat="49.10126" lon="-1.11557">
        <ele>58.78</ele>
        <time>2021-07-30T16:14:33Z</time>
      </trkpt>
      <trkpt lat="49.10134" lon="-1.11559">
        <ele>58.78</ele>
        <time>2021-07-30T16:14:34Z</time>
      </trkpt>
      <trkpt lat="49.10141" lon="-1.11562">
        <ele>58.78</ele>
        <time>2021-07-30T16:14:35Z</time>
      </trkpt>
      <trkpt lat="49.10148" lon="-1.11567">
        <ele>59.26</ele>
        <time>2021-07-30T16:14:36Z</time>
      </trkpt>
      <trkpt lat="49.10153" lon="-1.11574">
        <ele>58.3</ele>
        <time>2021-07-30T16:14:37Z</time>
      </trkpt>
      <trkpt lat="49.10157" lon="-1.11581">
        <ele>58.78</ele>
        <time>2021-07-30T16:14:38Z</time>
      </trkpt>
      <trkpt lat="49.10159" lon="-1.11584">
        <ele>58.78</ele>
        <time>2021-07-30T16:14:39Z</time>
      </trkpt>
      <trkpt lat="49.10165" lon="-1.11598">
        <ele>58.3</ele>
        <time>2021-07-30T16:14:40Z</time>
      </trkpt>
      <trkpt lat="49.10171" lon="-1.11602">
        <ele>58.3</ele>
        <time>2021-07-30T16:14:41Z</time>
      </trkpt>
      <trkpt lat="49.10178" lon="-1.11605">
        <ele>57.82</ele>
        <time>2021-07-30T16:14:42Z</time>
      </trkpt>
      <trkpt lat="49.10291" lon="-1.11639">
        <ele>45.8</ele>
        <time>2021-07-30T16:14:52Z</time>
      </trkpt>
      <trkpt lat="49.10443" lon="-1.11664">
        <ele>39.55</ele>
        <time>2021-07-30T16:15:02Z</time>
      </trkpt>
      <trkpt lat="49.10624" lon="-1.11733">
        <ele>32.34</ele>
        <time>2021-07-30T16:15:14Z</time>
      </trkpt>
      <trkpt lat="49.10786" lon="-1.11851">
        <ele>22.73</ele>
        <time>2021-07-30T16:15:23Z</time>
      </trkpt>
      <trkpt lat="49.10922" lon="-1.12035">
        <ele>17.44</ele>
        <time>2021-07-30T16:15:32Z</time>
      </trkpt>
      <trkpt lat="49.11017" lon="-1.12251">
        <ele>24.65</ele>
        <time>2021-07-30T16:15:41Z</time>
      </trkpt>
      <trkpt lat="49.11072" lon="-1.12495">
        <ele>40.51</ele>
        <time>2021-07-30T16:15:51Z</time>
      </trkpt>
      <trkpt lat="49.11087" lon="-1.12757">
        <ele>50.61</ele>
        <time>2021-07-30T16:16:01Z</time>
      </trkpt>
      <trkpt lat="49.11062" lon="-1.13038">
        <ele>61.66</ele>
        <time>2021-07-30T16:16:12Z</time>
      </trkpt>
      <trkpt lat="49.11028" lon="-1.13267">
        <ele>72.72</ele>
        <time>2021-07-30T16:16:25Z</time>
      </trkpt>
      <trkpt lat="49.11027" lon="-1.13281">
        <ele>72.72</ele>
        <time>2021-07-30T16:16:26Z</time>
      </trkpt>
      <trkpt lat="49.11027" lon="-1.13295">
        <ele>72.72</ele>
        <time>2021-07-30T16:16:27Z</time>
      </trkpt>
      <trkpt lat="49.1103" lon="-1.13308">
        <ele>73.2</ele>
        <time>2021-07-30T16:16:28Z</time>
      </trkpt>
      <trkpt lat="49.11034" lon="-1.13319">
        <ele>73.68</ele>
        <time>2021-07-30T16:16:29Z</time>
      </trkpt>
      <trkpt lat="49.11037" lon="-1.13331">
        <ele>74.16</ele>
        <time>2021-07-30T16:16:30Z</time>
      </trkpt>
      <trkpt lat="49.1104" lon="-1.13343">
        <ele>75.12</ele>
        <time>2021-07-30T16:16:31Z</time>
      </trkpt>
      <trkpt lat="49.11047" lon="-1.13363">
        <ele>75.6</ele>
        <time>2021-07-30T16:16:32Z</time>
      </trkpt>
      <trkpt lat="49.11052" lon="-1.13368">
        <ele>76.08</ele>
        <time>2021-07-30T16:16:33Z</time>
      </trkpt>
      <trkpt lat="49.11057" lon="-1.13373">
        <ele>76.08</ele>
        <time>2021-07-30T16:16:34Z</time>
      </trkpt>
      <trkpt lat="49.1106" lon="-1.13378">
        <ele>76.08</ele>
        <time>2021-07-30T16:16:35Z</time>
      </trkpt>
      <trkpt lat="49.11064" lon="-1.13382">
        <ele>76.08</ele>
        <time>2021-07-30T16:16:36Z</time>
      </trkpt>
      <trkpt lat="49.11064" lon="-1.13382">
        <ele>76.08</ele>
        <time>2021-07-30T16:16:37Z</time>
      </trkpt>
      <trkpt lat="49.11069" lon="-1.13383">
        <ele>75.6</ele>
        <time>2021-07-30T16:16:38Z</time>
      </trkpt>
      <trkpt lat="49.11075" lon="-1.1338">
        <ele>75.6</ele>
        <time>2021-07-30T16:16:39Z</time>
      </trkpt>
      <trkpt lat="49.11081" lon="-1.13377">
        <ele>76.56</ele>
        <time>2021-07-30T16:16:40Z</time>
      </trkpt>
      <trkpt lat="49.11089" lon="-1.13375">
        <ele>76.08</ele>
        <time>2021-07-30T16:16:41Z</time>
      </trkpt>
      <trkpt lat="49.11095" lon="-1.13377">
        <ele>76.08</ele>
        <time>2021-07-30T16:16:42Z</time>
      </trkpt>
      <trkpt lat="49.11099" lon="-1.13378">
        <ele>76.08</ele>
        <time>2021-07-30T16:16:43Z</time>
      </trkpt>
      <trkpt lat="49.11103" lon="-1.13388">
        <ele>76.56</ele>
        <time>2021-07-30T16:16:44Z</time>
      </trkpt>
      <trkpt lat="49.11107" lon="-1.13396">
        <ele>76.56</ele>
        <time>2021-07-30T16:16:45Z</time>
      </trkpt>
      <trkpt lat="49.1111" lon="-1.13404">
        <ele>76.56</ele>
        <time>2021-07-30T16:16:46Z</time>
      </trkpt>
      <trkpt lat="49.11111" lon="-1.1341">
        <ele>76.56</ele>
        <time>2021-07-30T16:16:47Z</time>
      </trkpt>
      <trkpt lat="49.11109" lon="-1.13419">
        <ele>77.04</ele>
        <time>2021-07-30T16:16:48Z</time>
      </trkpt>
      <trkpt lat="49.11107" lon="-1.13428">
        <ele>77.04</ele>
        <time>2021-07-30T16:16:49Z</time>
      </trkpt>
      <trkpt lat="49.11104" lon="-1.13436">
        <ele>76.56</ele>
        <time>2021-07-30T16:16:50Z</time>
      </trkpt>
      <trkpt lat="49.11101" lon="-1.13443">
        <ele>76.56</ele>
        <time>2021-07-30T16:16:51Z</time>
      </trkpt>
      <trkpt lat="49.11096" lon="-1.13449">
        <ele>77.04</ele>
        <time>2021-07-30T16:16:52Z</time>
      </trkpt>
      <trkpt lat="49.1109" lon="-1.13451">
        <ele>77.04</ele>
        <time>2021-07-30T16:16:53Z</time>
      </trkpt>
      <trkpt lat="49.11083" lon="-1.1345">
        <ele>76.56</ele>
        <time>2021-07-30T16:16:54Z</time>
      </trkpt>
      <trkpt lat="49.11076" lon="-1.13449">
        <ele>76.56</ele>
        <time>2021-07-30T16:16:55Z</time>
      </trkpt>
      <trkpt lat="49.11073" lon="-1.13449">
        <ele>76.56</ele>
        <time>2021-07-30T16:16:56Z</time>
      </trkpt>
      <trkpt lat="49.11051" lon="-1.1344">
        <ele>76.08</ele>
        <time>2021-07-30T16:16:57Z</time>
      </trkpt>
      <trkpt lat="49.11051" lon="-1.1344">
        <ele>76.08</ele>
        <time>2021-07-30T16:16:58Z</time>
      </trkpt>
      <trkpt lat="49.10955" lon="-1.13514">
        <ele>79.45</ele>
        <time>2021-07-30T16:17:09Z</time>
      </trkpt>
      <trkpt lat="49.1095" lon="-1.13521">
        <ele>78.97</ele>
        <time>2021-07-30T16:17:10Z</time>
      </trkpt>
      <trkpt lat="49.10945" lon="-1.13528">
        <ele>78.97</ele>
        <time>2021-07-30T16:17:11Z</time>
      </trkpt>
      <trkpt lat="49.10939" lon="-1.13547">
        <ele>78.97</ele>
        <time>2021-07-30T16:17:13Z</time>
      </trkpt>
      <trkpt lat="49.10934" lon="-1.1356">
        <ele>78.97</ele>
        <time>2021-07-30T16:17:14Z</time>
      </trkpt>
      <trkpt lat="49.1092" lon="-1.13571">
        <ele>78.97</ele>
        <time>2021-07-30T16:17:16Z</time>
      </trkpt>
      <trkpt lat="49.1091" lon="-1.13582">
        <ele>78.48</ele>
        <time>2021-07-30T16:17:17Z</time>
      </trkpt>
      <trkpt lat="49.1091" lon="-1.13593">
        <ele>78.48</ele>
        <time>2021-07-30T16:17:18Z</time>
      </trkpt>
      <trkpt lat="49.10894" lon="-1.13748">
        <ele>79.45</ele>
        <time>2021-07-30T16:17:27Z</time>
      </trkpt>
      <trkpt lat="49.1085" lon="-1.13909">
        <ele>80.41</ele>
        <time>2021-07-30T16:17:35Z</time>
      </trkpt>
      <trkpt lat="49.10762" lon="-1.14125">
        <ele>80.41</ele>
        <time>2021-07-30T16:17:46Z</time>
      </trkpt>
      <trkpt lat="49.10719" lon="-1.1423">
        <ele>81.37</ele>
        <time>2021-07-30T16:17:53Z</time>
      </trkpt>
      <trkpt lat="49.10714" lon="-1.14245">
        <ele>81.85</ele>
        <time>2021-07-30T16:17:55Z</time>
      </trkpt>
      <trkpt lat="49.10712" lon="-1.14251">
        <ele>81.85</ele>
        <time>2021-07-30T16:17:56Z</time>
      </trkpt>
      <trkpt lat="49.1071" lon="-1.14257">
        <ele>82.33</ele>
        <time>2021-07-30T16:17:57Z</time>
      </trkpt>
      <trkpt lat="49.10708" lon="-1.14263">
        <ele>82.33</ele>
        <time>2021-07-30T16:17:58Z</time>
      </trkpt>
      <trkpt lat="49.10708" lon="-1.1427">
        <ele>82.81</ele>
        <time>2021-07-30T16:17:59Z</time>
      </trkpt>
      <trkpt lat="49.10707" lon="-1.14278">
        <ele>82.81</ele>
        <time>2021-07-30T16:18:00Z</time>
      </trkpt>
      <trkpt lat="49.10713" lon="-1.14289">
        <ele>82.81</ele>
        <time>2021-07-30T16:18:01Z</time>
      </trkpt>
      <trkpt lat="49.10717" lon="-1.14298">
        <ele>83.29</ele>
        <time>2021-07-30T16:18:02Z</time>
      </trkpt>
      <trkpt lat="49.10716" lon="-1.14308">
        <ele>83.77</ele>
        <time>2021-07-30T16:18:03Z</time>
      </trkpt>
      <trkpt lat="49.10707" lon="-1.14318">
        <ele>84.25</ele>
        <time>2021-07-30T16:18:04Z</time>
      </trkpt>
      <trkpt lat="49.10698" lon="-1.14321">
        <ele>84.73</ele>
        <time>2021-07-30T16:18:05Z</time>
      </trkpt>
      <trkpt lat="49.10692" lon="-1.14329">
        <ele>83.77</ele>
        <time>2021-07-30T16:18:06Z</time>
      </trkpt>
      <trkpt lat="49.10685" lon="-1.14339">
        <ele>83.77</ele>
        <time>2021-07-30T16:18:07Z</time>
      </trkpt>
      <trkpt lat="49.10634" lon="-1.14434">
        <ele>82.81</ele>
        <time>2021-07-30T16:18:15Z</time>
      </trkpt>
      <trkpt lat="49.10548" lon="-1.14639">
        <ele>85.69</ele>
        <time>2021-07-30T16:18:26Z</time>
      </trkpt>
      <trkpt lat="49.10425" lon="-1.14941">
        <ele>85.69</ele>
        <time>2021-07-30T16:18:39Z</time>
      </trkpt>
      <trkpt lat="49.10368" lon="-1.15151">
        <ele>85.69</ele>
        <time>2021-07-30T16:18:47Z</time>
      </trkpt>
      <trkpt lat="49.1028" lon="-1.1573">
        <ele>93.39</ele>
        <time>2021-07-30T16:19:07Z</time>
      </trkpt>
      <trkpt lat="49.10279" lon="-1.15925">
        <ele>97.23</ele>
        <time>2021-07-30T16:19:15Z</time>
      </trkpt>
      <trkpt lat="49.10322" lon="-1.16304">
        <ele>101.56</ele>
        <time>2021-07-30T16:19:28Z</time>
      </trkpt>
      <trkpt lat="49.1038" lon="-1.16808">
        <ele>103.48</ele>
        <time>2021-07-30T16:19:45Z</time>
      </trkpt>
      <trkpt lat="49.10412" lon="-1.17079">
        <ele>104.92</ele>
        <time>2021-07-30T16:19:56Z</time>
      </trkpt>
      <trkpt lat="49.10444" lon="-1.17299">
        <ele>105.4</ele>
        <time>2021-07-30T16:20:10Z</time>
      </trkpt>
      <trkpt lat="49.10475" lon="-1.17534">
        <ele>107.81</ele>
        <time>2021-07-30T16:20:26Z</time>
      </trkpt>
      <trkpt lat="49.10479" lon="-1.17586">
        <ele>106.36</ele>
        <time>2021-07-30T16:20:34Z</time>
      </trkpt>
      <trkpt lat="49.10479" lon="-1.17605">
        <ele>105.4</ele>
        <time>2021-07-30T16:20:35Z</time>
      </trkpt>
      <trkpt lat="49.10472" lon="-1.17691">
        <ele>103</ele>
        <time>2021-07-30T16:20:42Z</time>
      </trkpt>
      <trkpt lat="49.1044" lon="-1.17931">
        <ele>102.04</ele>
        <time>2021-07-30T16:20:56Z</time>
      </trkpt>
      <trkpt lat="49.10398" lon="-1.18306">
        <ele>100.6</ele>
        <time>2021-07-30T16:21:14Z</time>
      </trkpt>
      <trkpt lat="49.10356" lon="-1.18687">
        <ele>98.67</ele>
        <time>2021-07-30T16:21:29Z</time>
      </trkpt>
      <trkpt lat="49.10314" lon="-1.1907">
        <ele>82.81</ele>
        <time>2021-07-30T16:21:42Z</time>
      </trkpt>
      <trkpt lat="49.10238" lon="-1.19725">
        <ele>56.86</ele>
        <time>2021-07-30T16:22:02Z</time>
      </trkpt>
      <trkpt lat="49.1018" lon="-1.19932">
        <ele>55.89</ele>
        <time>2021-07-30T16:22:09Z</time>
      </trkpt>
      <trkpt lat="49.10088" lon="-1.20101">
        <ele>64.55</ele>
        <time>2021-07-30T16:22:17Z</time>
      </trkpt>
      <trkpt lat="49.09974" lon="-1.20325">
        <ele>77.04</ele>
        <time>2021-07-30T16:22:27Z</time>
      </trkpt>
      <trkpt lat="49.09845" lon="-1.207">
        <ele>85.69</ele>
        <time>2021-07-30T16:22:42Z</time>
      </trkpt>
      <trkpt lat="49.09662" lon="-1.21247">
        <ele>90.5</ele>
        <time>2021-07-30T16:23:04Z</time>
      </trkpt>
      <trkpt lat="49.09546" lon="-1.21666">
        <ele>91.94</ele>
        <time>2021-07-30T16:23:19Z</time>
      </trkpt>
      <trkpt lat="49.09451" lon="-1.22171">
        <ele>98.67</ele>
        <time>2021-07-30T16:23:37Z</time>
      </trkpt>
      <trkpt lat="49.09394" lon="-1.2247">
        <ele>102.04</ele>
        <time>2021-07-30T16:23:48Z</time>
      </trkpt>
      <trkpt lat="49.09335" lon="-1.22783">
        <ele>97.23</ele>
        <time>2021-07-30T16:24:03Z</time>
      </trkpt>
      <trkpt lat="49.09327" lon="-1.22842">
        <ele>95.79</ele>
        <time>2021-07-30T16:24:07Z</time>
      </trkpt>
      <trkpt lat="49.09327" lon="-1.22855">
        <ele>95.79</ele>
        <time>2021-07-30T16:24:08Z</time>
      </trkpt>
      <trkpt lat="49.09327" lon="-1.22867">
        <ele>95.79</ele>
        <time>2021-07-30T16:24:09Z</time>
      </trkpt>
      <trkpt lat="49.09333" lon="-1.2289">
        <ele>96.27</ele>
        <time>2021-07-30T16:24:11Z</time>
      </trkpt>
      <trkpt lat="49.09333" lon="-1.22899">
        <ele>96.75</ele>
        <time>2021-07-30T16:24:12Z</time>
      </trkpt>
      <trkpt lat="49.09325" lon="-1.22916">
        <ele>96.75</ele>
        <time>2021-07-30T16:24:13Z</time>
      </trkpt>
      <trkpt lat="49.09317" lon="-1.22923">
        <ele>96.75</ele>
        <time>2021-07-30T16:24:14Z</time>
      </trkpt>
      <trkpt lat="49.09313" lon="-1.22933">
        <ele>96.27</ele>
        <time>2021-07-30T16:24:15Z</time>
      </trkpt>
      <trkpt lat="49.09313" lon="-1.22933">
        <ele>95.79</ele>
        <time>2021-07-30T16:24:16Z</time>
      </trkpt>
      <trkpt lat="49.09309" lon="-1.22943">
        <ele>95.79</ele>
        <time>2021-07-30T16:24:17Z</time>
      </trkpt>
      <trkpt lat="49.09305" lon="-1.22955">
        <ele>95.79</ele>
        <time>2021-07-30T16:24:18Z</time>
      </trkpt>
      <trkpt lat="49.09277" lon="-1.23095">
        <ele>89.54</ele>
        <time>2021-07-30T16:24:26Z</time>
      </trkpt>
      <trkpt lat="49.09229" lon="-1.23353">
        <ele>85.69</ele>
        <time>2021-07-30T16:24:36Z</time>
      </trkpt>
      <trkpt lat="49.09152" lon="-1.23762">
        <ele>80.89</ele>
        <time>2021-07-30T16:24:50Z</time>
      </trkpt>
      <trkpt lat="49.0906" lon="-1.24253">
        <ele>84.25</ele>
        <time>2021-07-30T16:25:07Z</time>
      </trkpt>
      <trkpt lat="49.08974" lon="-1.24701">
        <ele>96.27</ele>
        <time>2021-07-30T16:25:24Z</time>
      </trkpt>
      <trkpt lat="49.0894" lon="-1.2488">
        <ele>100.11</ele>
        <time>2021-07-30T16:25:32Z</time>
      </trkpt>
      <trkpt lat="49.08935" lon="-1.24907">
        <ele>100.6</ele>
        <time>2021-07-30T16:25:34Z</time>
      </trkpt>
      <trkpt lat="49.08933" lon="-1.24918">
        <ele>100.6</ele>
        <time>2021-07-30T16:25:35Z</time>
      </trkpt>
      <trkpt lat="49.08938" lon="-1.24939">
        <ele>100.6</ele>
        <time>2021-07-30T16:25:36Z</time>
      </trkpt>
      <trkpt lat="49.08936" lon="-1.24947">
        <ele>100.6</ele>
        <time>2021-07-30T16:25:37Z</time>
      </trkpt>
      <trkpt lat="49.08936" lon="-1.24947">
        <ele>101.08</ele>
        <time>2021-07-30T16:25:38Z</time>
      </trkpt>
      <trkpt lat="49.08934" lon="-1.24952">
        <ele>101.08</ele>
        <time>2021-07-30T16:25:39Z</time>
      </trkpt>
      <trkpt lat="49.08923" lon="-1.2497">
        <ele>100.6</ele>
        <time>2021-07-30T16:25:40Z</time>
      </trkpt>
      <trkpt lat="49.08921" lon="-1.2498">
        <ele>100.6</ele>
        <time>2021-07-30T16:25:41Z</time>
      </trkpt>
      <trkpt lat="49.08921" lon="-1.2498">
        <ele>100.11</ele>
        <time>2021-07-30T16:25:42Z</time>
      </trkpt>
      <trkpt lat="49.08919" lon="-1.2499">
        <ele>99.63</ele>
        <time>2021-07-30T16:25:43Z</time>
      </trkpt>
      <trkpt lat="49.08913" lon="-1.25017">
        <ele>100.11</ele>
        <time>2021-07-30T16:25:44Z</time>
      </trkpt>
      <trkpt lat="49.08883" lon="-1.25175">
        <ele>98.67</ele>
        <time>2021-07-30T16:25:53Z</time>
      </trkpt>
      <trkpt lat="49.08816" lon="-1.2553">
        <ele>92.42</ele>
        <time>2021-07-30T16:26:07Z</time>
      </trkpt>
      <trkpt lat="49.08771" lon="-1.25871">
        <ele>75.6</ele>
        <time>2021-07-30T16:26:20Z</time>
      </trkpt>
      <trkpt lat="49.08794" lon="-1.26104">
        <ele>67.43</ele>
        <time>2021-07-30T16:26:28Z</time>
      </trkpt>
      <trkpt lat="49.08814" lon="-1.26355">
        <ele>78.97</ele>
        <time>2021-07-30T16:26:37Z</time>
      </trkpt>
      <trkpt lat="49.08778" lon="-1.26584">
        <ele>84.73</ele>
        <time>2021-07-30T16:26:46Z</time>
      </trkpt>
      <trkpt lat="49.08689" lon="-1.27001">
        <ele>84.73</ele>
        <time>2021-07-30T16:27:02Z</time>
      </trkpt>
      <trkpt lat="49.08575" lon="-1.2753">
        <ele>92.9</ele>
        <time>2021-07-30T16:27:21Z</time>
      </trkpt>
      <trkpt lat="49.085" lon="-1.27881">
        <ele>105.4</ele>
        <time>2021-07-30T16:27:35Z</time>
      </trkpt>
      <trkpt lat="49.08413" lon="-1.2829">
        <ele>115.98</ele>
        <time>2021-07-30T16:27:51Z</time>
      </trkpt>
      <trkpt lat="49.08333" lon="-1.28654">
        <ele>121.74</ele>
        <time>2021-07-30T16:28:06Z</time>
      </trkpt>
      <trkpt lat="49.0824" lon="-1.29089">
        <ele>117.42</ele>
        <time>2021-07-30T16:28:23Z</time>
      </trkpt>
      <trkpt lat="49.08158" lon="-1.29484">
        <ele>114.05</ele>
        <time>2021-07-30T16:28:39Z</time>
      </trkpt>
      <trkpt lat="49.0805" lon="-1.30011">
        <ele>95.31</ele>
        <time>2021-07-30T16:29:00Z</time>
      </trkpt>
      <trkpt lat="49.08014" lon="-1.30329">
        <ele>82.33</ele>
        <time>2021-07-30T16:29:12Z</time>
      </trkpt>
      <trkpt lat="49.07934" lon="-1.30725">
        <ele>81.37</ele>
        <time>2021-07-30T16:29:25Z</time>
      </trkpt>
      <trkpt lat="49.07888" lon="-1.31023">
        <ele>95.31</ele>
        <time>2021-07-30T16:29:35Z</time>
      </trkpt>
      <trkpt lat="49.07892" lon="-1.31303">
        <ele>108.77</ele>
        <time>2021-07-30T16:29:45Z</time>
      </trkpt>
      <trkpt lat="49.07865" lon="-1.31517">
        <ele>115.01</ele>
        <time>2021-07-30T16:29:53Z</time>
      </trkpt>
      <trkpt lat="49.07753" lon="-1.31937">
        <ele>120.3</ele>
        <time>2021-07-30T16:30:08Z</time>
      </trkpt>
      <trkpt lat="49.07618" lon="-1.32445">
        <ele>124.63</ele>
        <time>2021-07-30T16:30:26Z</time>
      </trkpt>
      <trkpt lat="49.07532" lon="-1.32765">
        <ele>123.19</ele>
        <time>2021-07-30T16:30:38Z</time>
      </trkpt>
      <trkpt lat="49.07421" lon="-1.33185">
        <ele>125.11</ele>
        <time>2021-07-30T16:30:52Z</time>
      </trkpt>
      <trkpt lat="49.07395" lon="-1.33429">
        <ele>130.88</ele>
        <time>2021-07-30T16:31:00Z</time>
      </trkpt>
      <trkpt lat="49.07389" lon="-1.33879">
        <ele>126.55</ele>
        <time>2021-07-30T16:31:16Z</time>
      </trkpt>
      <trkpt lat="49.07383" lon="-1.34297">
        <ele>127.51</ele>
        <time>2021-07-30T16:31:31Z</time>
      </trkpt>
      <trkpt lat="49.07379" lon="-1.34613">
        <ele>127.51</ele>
        <time>2021-07-30T16:31:45Z</time>
      </trkpt>
      <trkpt lat="49.07372" lon="-1.35028">
        <ele>132.32</ele>
        <time>2021-07-30T16:32:03Z</time>
      </trkpt>
      <trkpt lat="49.07368" lon="-1.35401">
        <ele>137.61</ele>
        <time>2021-07-30T16:32:23Z</time>
      </trkpt>
      <trkpt lat="49.07361" lon="-1.35705">
        <ele>138.57</ele>
        <time>2021-07-30T16:32:35Z</time>
      </trkpt>
      <trkpt lat="49.07352" lon="-1.36073">
        <ele>145.3</ele>
        <time>2021-07-30T16:32:50Z</time>
      </trkpt>
      <trkpt lat="49.07323" lon="-1.36272">
        <ele>147.22</ele>
        <time>2021-07-30T16:32:58Z</time>
      </trkpt>
      <trkpt lat="49.07179" lon="-1.3684">
        <ele>135.68</ele>
        <time>2021-07-30T16:33:20Z</time>
      </trkpt>
      <trkpt lat="49.07041" lon="-1.37379">
        <ele>124.63</ele>
        <time>2021-07-30T16:33:40Z</time>
      </trkpt>
      <trkpt lat="49.06942" lon="-1.37774">
        <ele>114.05</ele>
        <time>2021-07-30T16:33:58Z</time>
      </trkpt>
      <trkpt lat="49.06827" lon="-1.38225">
        <ele>98.19</ele>
        <time>2021-07-30T16:34:16Z</time>
      </trkpt>
      <trkpt lat="49.06715" lon="-1.38661">
        <ele>102.52</ele>
        <time>2021-07-30T16:34:33Z</time>
      </trkpt>
      <trkpt lat="49.06604" lon="-1.39085">
        <ele>111.17</ele>
        <time>2021-07-30T16:34:52Z</time>
      </trkpt>
      <trkpt lat="49.0653" lon="-1.39375">
        <ele>116.94</ele>
        <time>2021-07-30T16:35:05Z</time>
      </trkpt>
      <trkpt lat="49.06484" lon="-1.39658">
        <ele>121.74</ele>
        <time>2021-07-30T16:35:16Z</time>
      </trkpt>
      <trkpt lat="49.06481" lon="-1.39938">
        <ele>129.92</ele>
        <time>2021-07-30T16:35:27Z</time>
      </trkpt>
      <trkpt lat="49.06527" lon="-1.40249">
        <ele>137.13</ele>
        <time>2021-07-30T16:35:38Z</time>
      </trkpt>
      <trkpt lat="49.06566" lon="-1.40475">
        <ele>131.36</ele>
        <time>2021-07-30T16:35:47Z</time>
      </trkpt>
      <trkpt lat="49.06645" lon="-1.40912">
        <ele>118.38</ele>
        <time>2021-07-30T16:36:04Z</time>
      </trkpt>
      <trkpt lat="49.06744" lon="-1.41486">
        <ele>114.05</ele>
        <time>2021-07-30T16:36:25Z</time>
      </trkpt>
      <trkpt lat="49.06802" lon="-1.41864">
        <ele>116.94</ele>
        <time>2021-07-30T16:36:37Z</time>
      </trkpt>
      <trkpt lat="49.06839" lon="-1.42116">
        <ele>126.55</ele>
        <time>2021-07-30T16:36:47Z</time>
      </trkpt>
      <trkpt lat="49.06887" lon="-1.42462">
        <ele>133.76</ele>
        <time>2021-07-30T16:37:00Z</time>
      </trkpt>
      <trkpt lat="49.0693" lon="-1.42795">
        <ele>130.88</ele>
        <time>2021-07-30T16:37:14Z</time>
      </trkpt>
      <trkpt lat="49.0694" lon="-1.42908">
        <ele>130.88</ele>
        <time>2021-07-30T16:37:22Z</time>
      </trkpt>
      <trkpt lat="49.06941" lon="-1.42955">
        <ele>129.43</ele>
        <time>2021-07-30T16:37:30Z</time>
      </trkpt>
      <trkpt lat="49.06951" lon="-1.42972">
        <ele>129.43</ele>
        <time>2021-07-30T16:37:39Z</time>
      </trkpt>
      <trkpt lat="49.06959" lon="-1.42981">
        <ele>129.43</ele>
        <time>2021-07-30T16:37:42Z</time>
      </trkpt>
      <trkpt lat="49.06962" lon="-1.42988">
        <ele>129.43</ele>
        <time>2021-07-30T16:37:43Z</time>
      </trkpt>
      <trkpt lat="49.06966" lon="-1.42996">
        <ele>129.43</ele>
        <time>2021-07-30T16:37:44Z</time>
      </trkpt>
      <trkpt lat="49.06967" lon="-1.43006">
        <ele>128.95</ele>
        <time>2021-07-30T16:37:45Z</time>
      </trkpt>
      <trkpt lat="49.06968" lon="-1.43017">
        <ele>128.95</ele>
        <time>2021-07-30T16:37:46Z</time>
      </trkpt>
      <trkpt lat="49.06963" lon="-1.43036">
        <ele>128.95</ele>
        <time>2021-07-30T16:37:47Z</time>
      </trkpt>
      <trkpt lat="49.06963" lon="-1.43036">
        <ele>128.47</ele>
        <time>2021-07-30T16:37:48Z</time>
      </trkpt>
      <trkpt lat="49.06959" lon="-1.43044">
        <ele>128.95</ele>
        <time>2021-07-30T16:37:49Z</time>
      </trkpt>
      <trkpt lat="49.06947" lon="-1.43055">
        <ele>128.95</ele>
        <time>2021-07-30T16:37:50Z</time>
      </trkpt>
      <trkpt lat="49.06947" lon="-1.43055">
        <ele>128.95</ele>
        <time>2021-07-30T16:37:51Z</time>
      </trkpt>
      <trkpt lat="49.0694" lon="-1.43058">
        <ele>128.47</ele>
        <time>2021-07-30T16:37:52Z</time>
      </trkpt>
      <trkpt lat="49.06933" lon="-1.4306">
        <ele>128.47</ele>
        <time>2021-07-30T16:37:53Z</time>
      </trkpt>
      <trkpt lat="49.06921" lon="-1.43051">
        <ele>127.99</ele>
        <time>2021-07-30T16:37:54Z</time>
      </trkpt>
      <trkpt lat="49.06921" lon="-1.43051">
        <ele>128.47</ele>
        <time>2021-07-30T16:37:55Z</time>
      </trkpt>
      <trkpt lat="49.06917" lon="-1.43045">
        <ele>128.47</ele>
        <time>2021-07-30T16:37:56Z</time>
      </trkpt>
      <trkpt lat="49.06912" lon="-1.43039">
        <ele>128.47</ele>
        <time>2021-07-30T16:37:57Z</time>
      </trkpt>
      <trkpt lat="49.0691" lon="-1.43032">
        <ele>128.47</ele>
        <time>2021-07-30T16:37:58Z</time>
      </trkpt>
      <trkpt lat="49.0691" lon="-1.43022">
        <ele>128.95</ele>
        <time>2021-07-30T16:37:59Z</time>
      </trkpt>
      <trkpt lat="49.06909" lon="-1.43001">
        <ele>128.95</ele>
        <time>2021-07-30T16:38:00Z</time>
      </trkpt>
      <trkpt lat="49.06909" lon="-1.43001">
        <ele>128.95</ele>
        <time>2021-07-30T16:38:01Z</time>
      </trkpt>
      <trkpt lat="49.06912" lon="-1.42992">
        <ele>129.43</ele>
        <time>2021-07-30T16:38:02Z</time>
      </trkpt>
      <trkpt lat="49.06916" lon="-1.42983">
        <ele>129.43</ele>
        <time>2021-07-30T16:38:03Z</time>
      </trkpt>
      <trkpt lat="49.06919" lon="-1.42975">
        <ele>129.43</ele>
        <time>2021-07-30T16:38:04Z</time>
      </trkpt>
      <trkpt lat="49.06922" lon="-1.42965">
        <ele>129.43</ele>
        <time>2021-07-30T16:38:05Z</time>
      </trkpt>
      <trkpt lat="49.06926" lon="-1.42956">
        <ele>129.43</ele>
        <time>2021-07-30T16:38:06Z</time>
      </trkpt>
      <trkpt lat="49.0693" lon="-1.42945">
        <ele>129.43</ele>
        <time>2021-07-30T16:38:07Z</time>
      </trkpt>
      <trkpt lat="49.06932" lon="-1.42932">
        <ele>129.43</ele>
        <time>2021-07-30T16:38:08Z</time>
      </trkpt>
      <trkpt lat="49.06932" lon="-1.42918">
        <ele>129.92</ele>
        <time>2021-07-30T16:38:09Z</time>
      </trkpt>
      <trkpt lat="49.06926" lon="-1.42734">
        <ele>129.43</ele>
        <time>2021-07-30T16:38:19Z</time>
      </trkpt>
      <trkpt lat="49.06864" lon="-1.42416">
        <ele>124.15</ele>
        <time>2021-07-30T16:38:35Z</time>
      </trkpt>
      <trkpt lat="49.0685" lon="-1.42349">
        <ele>122.22</ele>
        <time>2021-07-30T16:38:40Z</time>
      </trkpt>
      <trkpt lat="49.06849" lon="-1.42343">
        <ele>121.74</ele>
        <time>2021-07-30T16:38:41Z</time>
      </trkpt>
      <trkpt lat="49.06848" lon="-1.42339">
        <ele>121.74</ele>
        <time>2021-07-30T16:38:42Z</time>
      </trkpt>
      <trkpt lat="49.06848" lon="-1.42339">
        <ele>121.74</ele>
        <time>2021-07-30T16:38:48Z</time>
      </trkpt>
      <trkpt lat="49.06841" lon="-1.42333">
        <ele>121.74</ele>
        <time>2021-07-30T16:38:49Z</time>
      </trkpt>
      <trkpt lat="49.06837" lon="-1.42334">
        <ele>122.22</ele>
        <time>2021-07-30T16:38:50Z</time>
      </trkpt>
      <trkpt lat="49.06837" lon="-1.42334">
        <ele>122.22</ele>
        <time>2021-07-30T16:38:51Z</time>
      </trkpt>
      <trkpt lat="49.06832" lon="-1.42336">
        <ele>122.22</ele>
        <time>2021-07-30T16:38:52Z</time>
      </trkpt>
      <trkpt lat="49.06826" lon="-1.42338">
        <ele>121.74</ele>
        <time>2021-07-30T16:38:53Z</time>
      </trkpt>
      <trkpt lat="49.06756" lon="-1.4237">
        <ele>121.74</ele>
        <time>2021-07-30T16:39:00Z</time>
      </trkpt>
      <trkpt lat="49.06664" lon="-1.42462">
        <ele>124.63</ele>
        <time>2021-07-30T16:39:08Z</time>
      </trkpt>
      <trkpt lat="49.06523" lon="-1.42643">
        <ele>121.26</ele>
        <time>2021-07-30T16:39:20Z</time>
      </trkpt>
      <trkpt lat="49.06385" lon="-1.42729">
        <ele>115.01</ele>
        <time>2021-07-30T16:39:29Z</time>
      </trkpt>
      <trkpt lat="49.06243" lon="-1.42821">
        <ele>108.77</ele>
        <time>2021-07-30T16:39:40Z</time>
      </trkpt>
      <trkpt lat="49.06115" lon="-1.42932">
        <ele>104.92</ele>
        <time>2021-07-30T16:39:53Z</time>
      </trkpt>
      <trkpt lat="49.06083" lon="-1.42968">
        <ele>103.48</ele>
        <time>2021-07-30T16:39:59Z</time>
      </trkpt>
      <trkpt lat="49.06032" lon="-1.43055">
        <ele>103.48</ele>
        <time>2021-07-30T16:40:08Z</time>
      </trkpt>
      <trkpt lat="49.0601" lon="-1.43097">
        <ele>104.44</ele>
        <time>2021-07-30T16:40:13Z</time>
      </trkpt>
      <trkpt lat="49.06007" lon="-1.43103">
        <ele>104.44</ele>
        <time>2021-07-30T16:40:14Z</time>
      </trkpt>
      <trkpt lat="49.06001" lon="-1.4312">
        <ele>104.44</ele>
        <time>2021-07-30T16:40:15Z</time>
      </trkpt>
      <trkpt lat="49.06001" lon="-1.4312">
        <ele>103.96</ele>
        <time>2021-07-30T16:40:16Z</time>
      </trkpt>
      <trkpt lat="49.06003" lon="-1.43132">
        <ele>103.96</ele>
        <time>2021-07-30T16:40:17Z</time>
      </trkpt>
      <trkpt lat="49.06" lon="-1.43136">
        <ele>103.96</ele>
        <time>2021-07-30T16:40:18Z</time>
      </trkpt>
      <trkpt lat="49.06" lon="-1.43136">
        <ele>103.96</ele>
        <time>2021-07-30T16:40:19Z</time>
      </trkpt>
      <trkpt lat="49.05996" lon="-1.43137">
        <ele>103.96</ele>
        <time>2021-07-30T16:40:20Z</time>
      </trkpt>
      <trkpt lat="49.05992" lon="-1.43137">
        <ele>103.96</ele>
        <time>2021-07-30T16:40:21Z</time>
      </trkpt>
      <trkpt lat="49.05989" lon="-1.43137">
        <ele>103.96</ele>
        <time>2021-07-30T16:40:22Z</time>
      </trkpt>
      <trkpt lat="49.05987" lon="-1.43132">
        <ele>103.96</ele>
        <time>2021-07-30T16:40:23Z</time>
      </trkpt>
      <trkpt lat="49.05986" lon="-1.43129">
        <ele>104.44</ele>
        <time>2021-07-30T16:40:24Z</time>
      </trkpt>
      <trkpt lat="49.05982" lon="-1.43106">
        <ele>104.44</ele>
        <time>2021-07-30T16:40:25Z</time>
      </trkpt>
      <trkpt lat="49.05982" lon="-1.43106">
        <ele>104.44</ele>
        <time>2021-07-30T16:40:26Z</time>
      </trkpt>
      <trkpt lat="49.0597" lon="-1.43093">
        <ele>104.92</ele>
        <time>2021-07-30T16:40:27Z</time>
      </trkpt>
      <trkpt lat="49.05904" lon="-1.43025">
        <ele>103.96</ele>
        <time>2021-07-30T16:40:36Z</time>
      </trkpt>
      <trkpt lat="49.05867" lon="-1.42991">
        <ele>100.6</ele>
        <time>2021-07-30T16:40:41Z</time>
      </trkpt>
      <trkpt lat="49.05822" lon="-1.4295">
        <ele>101.56</ele>
        <time>2021-07-30T16:40:51Z</time>
      </trkpt>
      <trkpt lat="49.05795" lon="-1.42927">
        <ele>101.08</ele>
        <time>2021-07-30T16:40:57Z</time>
      </trkpt>
      <trkpt lat="49.05784" lon="-1.42925">
        <ele>101.08</ele>
        <time>2021-07-30T16:40:58Z</time>
      </trkpt>
      <trkpt lat="49.05779" lon="-1.42926">
        <ele>102.04</ele>
        <time>2021-07-30T16:41:01Z</time>
      </trkpt>
      <trkpt lat="49.05776" lon="-1.42924">
        <ele>102.52</ele>
        <time>2021-07-30T16:41:02Z</time>
      </trkpt>
      <trkpt lat="49.05772" lon="-1.42922">
        <ele>102.52</ele>
        <time>2021-07-30T16:41:03Z</time>
      </trkpt>
      <trkpt lat="49.05771" lon="-1.42917">
        <ele>102.52</ele>
        <time>2021-07-30T16:41:04Z</time>
      </trkpt>
      <trkpt lat="49.05771" lon="-1.42902">
        <ele>102.52</ele>
        <time>2021-07-30T16:41:05Z</time>
      </trkpt>
      <trkpt lat="49.05771" lon="-1.42902">
        <ele>102.52</ele>
        <time>2021-07-30T16:41:06Z</time>
      </trkpt>
      <trkpt lat="49.05774" lon="-1.42896">
        <ele>102.04</ele>
        <time>2021-07-30T16:41:07Z</time>
      </trkpt>
      <trkpt lat="49.05779" lon="-1.42894">
        <ele>102.04</ele>
        <time>2021-07-30T16:41:08Z</time>
      </trkpt>
      <trkpt lat="49.05784" lon="-1.42896">
        <ele>101.56</ele>
        <time>2021-07-30T16:41:09Z</time>
      </trkpt>
      <trkpt lat="49.05787" lon="-1.42901">
        <ele>101.56</ele>
        <time>2021-07-30T16:41:10Z</time>
      </trkpt>
      <trkpt lat="49.05789" lon="-1.42906">
        <ele>101.56</ele>
        <time>2021-07-30T16:41:11Z</time>
      </trkpt>
      <trkpt lat="49.05789" lon="-1.42914">
        <ele>101.56</ele>
        <time>2021-07-30T16:41:12Z</time>
      </trkpt>
      <trkpt lat="49.05786" lon="-1.42923">
        <ele>101.56</ele>
        <time>2021-07-30T16:41:13Z</time>
      </trkpt>
      <trkpt lat="49.05782" lon="-1.42927">
        <ele>101.08</ele>
        <time>2021-07-30T16:41:14Z</time>
      </trkpt>
      <trkpt lat="49.05774" lon="-1.42945">
        <ele>102.04</ele>
        <time>2021-07-30T16:41:15Z</time>
      </trkpt>
      <trkpt lat="49.0573" lon="-1.43066">
        <ele>103.48</ele>
        <time>2021-07-30T16:41:25Z</time>
      </trkpt>
      <trkpt lat="49.05638" lon="-1.43375">
        <ele>95.31</ele>
        <time>2021-07-30T16:41:44Z</time>
      </trkpt>
      <trkpt lat="49.05545" lon="-1.43668">
        <ele>87.62</ele>
        <time>2021-07-30T16:42:02Z</time>
      </trkpt>
      <trkpt lat="49.05446" lon="-1.43921">
        <ele>81.37</ele>
        <time>2021-07-30T16:42:20Z</time>
      </trkpt>
      <trkpt lat="49.05375" lon="-1.44097">
        <ele>77.52</ele>
        <time>2021-07-30T16:42:34Z</time>
      </trkpt>
      <trkpt lat="49.05368" lon="-1.44116">
        <ele>77.52</ele>
        <time>2021-07-30T16:42:36Z</time>
      </trkpt>
      <trkpt lat="49.05364" lon="-1.44126">
        <ele>77.52</ele>
        <time>2021-07-30T16:42:37Z</time>
      </trkpt>
      <trkpt lat="49.05247" lon="-1.44305">
        <ele>74.16</ele>
        <time>2021-07-30T16:42:57Z</time>
      </trkpt>
      <trkpt lat="49.05154" lon="-1.44444">
        <ele>71.76</ele>
        <time>2021-07-30T16:43:10Z</time>
      </trkpt>
      <trkpt lat="49.05089" lon="-1.44544">
        <ele>73.68</ele>
        <time>2021-07-30T16:43:22Z</time>
      </trkpt>
      <trkpt lat="49.05001" lon="-1.44677">
        <ele>74.16</ele>
        <time>2021-07-30T16:43:39Z</time>
      </trkpt>
      <trkpt lat="49.04987" lon="-1.44698">
        <ele>74.16</ele>
        <time>2021-07-30T16:43:47Z</time>
      </trkpt>
      <trkpt lat="49.0497" lon="-1.44723">
        <ele>73.2</ele>
        <time>2021-07-30T16:44:45Z</time>
      </trkpt>
      <trkpt lat="49.04888" lon="-1.44812">
        <ele>65.51</ele>
        <time>2021-07-30T16:44:55Z</time>
      </trkpt>
      <trkpt lat="49.04762" lon="-1.44912">
        <ele>59.26</ele>
        <time>2021-07-30T16:45:08Z</time>
      </trkpt>
      <trkpt lat="49.04652" lon="-1.44959">
        <ele>55.41</ele>
        <time>2021-07-30T16:45:17Z</time>
      </trkpt>
      <trkpt lat="49.04556" lon="-1.44942">
        <ele>53.49</ele>
        <time>2021-07-30T16:45:26Z</time>
      </trkpt>
      <trkpt lat="49.04398" lon="-1.4488">
        <ele>46.28</ele>
        <time>2021-07-30T16:45:38Z</time>
      </trkpt>
      <trkpt lat="49.04385" lon="-1.44878">
        <ele>45.32</ele>
        <time>2021-07-30T16:45:39Z</time>
      </trkpt>
      <trkpt lat="49.04371" lon="-1.44879">
        <ele>44.36</ele>
        <time>2021-07-30T16:45:40Z</time>
      </trkpt>
      <trkpt lat="49.04358" lon="-1.44879">
        <ele>44.36</ele>
        <time>2021-07-30T16:45:41Z</time>
      </trkpt>
      <trkpt lat="49.04345" lon="-1.4488">
        <ele>43.4</ele>
        <time>2021-07-30T16:45:42Z</time>
      </trkpt>
      <trkpt lat="49.04332" lon="-1.4488">
        <ele>42.44</ele>
        <time>2021-07-30T16:45:43Z</time>
      </trkpt>
      <trkpt lat="49.04319" lon="-1.44886">
        <ele>41.47</ele>
        <time>2021-07-30T16:45:44Z</time>
      </trkpt>
      <trkpt lat="49.04306" lon="-1.44894">
        <ele>40.99</ele>
        <time>2021-07-30T16:45:45Z</time>
      </trkpt>
      <trkpt lat="49.04241" lon="-1.44937">
        <ele>38.11</ele>
        <time>2021-07-30T16:45:51Z</time>
      </trkpt>
      <trkpt lat="49.04233" lon="-1.44938">
        <ele>37.15</ele>
        <time>2021-07-30T16:45:52Z</time>
      </trkpt>
      <trkpt lat="49.04224" lon="-1.4494">
        <ele>37.15</ele>
        <time>2021-07-30T16:45:53Z</time>
      </trkpt>
      <trkpt lat="49.04214" lon="-1.44937">
        <ele>36.19</ele>
        <time>2021-07-30T16:45:54Z</time>
      </trkpt>
      <trkpt lat="49.04205" lon="-1.44933">
        <ele>34.74</ele>
        <time>2021-07-30T16:45:55Z</time>
      </trkpt>
      <trkpt lat="49.04195" lon="-1.44925">
        <ele>33.3</ele>
        <time>2021-07-30T16:45:56Z</time>
      </trkpt>
      <trkpt lat="49.04185" lon="-1.44917">
        <ele>31.38</ele>
        <time>2021-07-30T16:45:57Z</time>
      </trkpt>
      <trkpt lat="49.0403" lon="-1.44774">
        <ele>20.81</ele>
        <time>2021-07-30T16:46:11Z</time>
      </trkpt>
      <trkpt lat="49.03987" lon="-1.44729">
        <ele>18.88</ele>
        <time>2021-07-30T16:46:17Z</time>
      </trkpt>
      <trkpt lat="49.03973" lon="-1.44728">
        <ele>18.88</ele>
        <time>2021-07-30T16:46:18Z</time>
      </trkpt>
      <trkpt lat="49.03973" lon="-1.44728">
        <ele>18.88</ele>
        <time>2021-07-30T16:46:19Z</time>
      </trkpt>
      <trkpt lat="49.03969" lon="-1.44725">
        <ele>18.4</ele>
        <time>2021-07-30T16:46:20Z</time>
      </trkpt>
      <trkpt lat="49.03967" lon="-1.44708">
        <ele>18.4</ele>
        <time>2021-07-30T16:46:21Z</time>
      </trkpt>
      <trkpt lat="49.03963" lon="-1.44705">
        <ele>18.4</ele>
        <time>2021-07-30T16:46:22Z</time>
      </trkpt>
      <trkpt lat="49.03892" lon="-1.44636">
        <ele>16.96</ele>
        <time>2021-07-30T16:46:32Z</time>
      </trkpt>
      <trkpt lat="49.03757" lon="-1.44514">
        <ele>15.04</ele>
        <time>2021-07-30T16:46:46Z</time>
      </trkpt>
      <trkpt lat="49.03653" lon="-1.44427">
        <ele>14.56</ele>
        <time>2021-07-30T16:46:58Z</time>
      </trkpt>
      <trkpt lat="49.0364" lon="-1.44416">
        <ele>15.52</ele>
        <time>2021-07-30T16:47:02Z</time>
      </trkpt>
      <trkpt lat="49.03632" lon="-1.44419">
        <ele>15.52</ele>
        <time>2021-07-30T16:47:03Z</time>
      </trkpt>
      <trkpt lat="49.03628" lon="-1.44422">
        <ele>15.52</ele>
        <time>2021-07-30T16:47:04Z</time>
      </trkpt>
      <trkpt lat="49.03621" lon="-1.44423">
        <ele>15.52</ele>
        <time>2021-07-30T16:47:05Z</time>
      </trkpt>
      <trkpt lat="49.03616" lon="-1.44418">
        <ele>15.52</ele>
        <time>2021-07-30T16:47:06Z</time>
      </trkpt>
      <trkpt lat="49.03608" lon="-1.44409">
        <ele>15.52</ele>
        <time>2021-07-30T16:47:07Z</time>
      </trkpt>
      <trkpt lat="49.03592" lon="-1.44412">
        <ele>15.52</ele>
        <time>2021-07-30T16:47:08Z</time>
      </trkpt>
      <trkpt lat="49.03582" lon="-1.44415">
        <ele>15.52</ele>
        <time>2021-07-30T16:47:09Z</time>
      </trkpt>
      <trkpt lat="49.035" lon="-1.44458">
        <ele>17.44</ele>
        <time>2021-07-30T16:47:17Z</time>
      </trkpt>
      <trkpt lat="49.03361" lon="-1.4457">
        <ele>17.44</ele>
        <time>2021-07-30T16:47:28Z</time>
      </trkpt>
      <trkpt lat="49.03191" lon="-1.4472">
        <ele>24.17</ele>
        <time>2021-07-30T16:47:43Z</time>
      </trkpt>
      <trkpt lat="49.0308" lon="-1.44889">
        <ele>27.53</ele>
        <time>2021-07-30T16:47:53Z</time>
      </trkpt>
      <trkpt lat="49.0301" lon="-1.45107">
        <ele>35.71</ele>
        <time>2021-07-30T16:48:02Z</time>
      </trkpt>
      <trkpt lat="49.02953" lon="-1.45308">
        <ele>44.84</ele>
        <time>2021-07-30T16:48:10Z</time>
      </trkpt>
      <trkpt lat="49.02942" lon="-1.4533">
        <ele>45.8</ele>
        <time>2021-07-30T16:48:11Z</time>
      </trkpt>
      <trkpt lat="49.02931" lon="-1.45352">
        <ele>47.72</ele>
        <time>2021-07-30T16:48:12Z</time>
      </trkpt>
      <trkpt lat="49.02917" lon="-1.45371">
        <ele>48.68</ele>
        <time>2021-07-30T16:48:13Z</time>
      </trkpt>
      <trkpt lat="49.02904" lon="-1.45389">
        <ele>50.13</ele>
        <time>2021-07-30T16:48:14Z</time>
      </trkpt>
      <trkpt lat="49.02889" lon="-1.45404">
        <ele>51.09</ele>
        <time>2021-07-30T16:48:15Z</time>
      </trkpt>
      <trkpt lat="49.02873" lon="-1.45417">
        <ele>51.57</ele>
        <time>2021-07-30T16:48:16Z</time>
      </trkpt>
      <trkpt lat="49.02856" lon="-1.4543">
        <ele>51.57</ele>
        <time>2021-07-30T16:48:17Z</time>
      </trkpt>
      <trkpt lat="49.0284" lon="-1.45441">
        <ele>52.53</ele>
        <time>2021-07-30T16:48:18Z</time>
      </trkpt>
      <trkpt lat="49.02821" lon="-1.45449">
        <ele>52.53</ele>
        <time>2021-07-30T16:48:19Z</time>
      </trkpt>
      <trkpt lat="49.02803" lon="-1.45453">
        <ele>53.01</ele>
        <time>2021-07-30T16:48:20Z</time>
      </trkpt>
      <trkpt lat="49.02784" lon="-1.45457">
        <ele>53.01</ele>
        <time>2021-07-30T16:48:21Z</time>
      </trkpt>
      <trkpt lat="49.02765" lon="-1.45459">
        <ele>54.45</ele>
        <time>2021-07-30T16:48:22Z</time>
      </trkpt>
      <trkpt lat="49.02746" lon="-1.45456">
        <ele>57.34</ele>
        <time>2021-07-30T16:48:23Z</time>
      </trkpt>
      <trkpt lat="49.02728" lon="-1.45453">
        <ele>58.3</ele>
        <time>2021-07-30T16:48:24Z</time>
      </trkpt>
      <trkpt lat="49.02709" lon="-1.45451">
        <ele>59.26</ele>
        <time>2021-07-30T16:48:25Z</time>
      </trkpt>
      <trkpt lat="49.02691" lon="-1.45445">
        <ele>60.22</ele>
        <time>2021-07-30T16:48:26Z</time>
      </trkpt>
      <trkpt lat="49.02673" lon="-1.45435">
        <ele>62.14</ele>
        <time>2021-07-30T16:48:27Z</time>
      </trkpt>
      <trkpt lat="49.0251" lon="-1.45354">
        <ele>70.79</ele>
        <time>2021-07-30T16:48:37Z</time>
      </trkpt>
      <trkpt lat="49.02424" lon="-1.45339">
        <ele>72.72</ele>
        <time>2021-07-30T16:48:44Z</time>
      </trkpt>
      <trkpt lat="49.02418" lon="-1.45338">
        <ele>72.72</ele>
        <time>2021-07-30T16:48:45Z</time>
      </trkpt>
      <trkpt lat="49.02415" lon="-1.45337">
        <ele>73.2</ele>
        <time>2021-07-30T16:48:46Z</time>
      </trkpt>
      <trkpt lat="49.0241" lon="-1.45357">
        <ele>73.2</ele>
        <time>2021-07-30T16:48:47Z</time>
      </trkpt>
      <trkpt lat="49.02406" lon="-1.45363">
        <ele>73.2</ele>
        <time>2021-07-30T16:48:48Z</time>
      </trkpt>
      <trkpt lat="49.02396" lon="-1.45369">
        <ele>73.2</ele>
        <time>2021-07-30T16:48:49Z</time>
      </trkpt>
      <trkpt lat="49.02389" lon="-1.45371">
        <ele>73.2</ele>
        <time>2021-07-30T16:48:50Z</time>
      </trkpt>
      <trkpt lat="49.02373" lon="-1.45371">
        <ele>73.2</ele>
        <time>2021-07-30T16:48:51Z</time>
      </trkpt>
      <trkpt lat="49.02373" lon="-1.45371">
        <ele>73.2</ele>
        <time>2021-07-30T16:48:52Z</time>
      </trkpt>
      <trkpt lat="49.02357" lon="-1.45381">
        <ele>73.2</ele>
        <time>2021-07-30T16:48:53Z</time>
      </trkpt>
      <trkpt lat="49.02357" lon="-1.45381">
        <ele>73.68</ele>
        <time>2021-07-30T16:48:54Z</time>
      </trkpt>
      <trkpt lat="49.0233" lon="-1.45399">
        <ele>71.76</ele>
        <time>2021-07-30T16:48:57Z</time>
      </trkpt>
      <trkpt lat="49.02321" lon="-1.45404">
        <ele>72.72</ele>
        <time>2021-07-30T16:48:58Z</time>
      </trkpt>
      <trkpt lat="49.0231" lon="-1.45407">
        <ele>71.76</ele>
        <time>2021-07-30T16:48:59Z</time>
      </trkpt>
      <trkpt lat="49.02188" lon="-1.45437">
        <ele>70.31</ele>
        <time>2021-07-30T16:49:09Z</time>
      </trkpt>
      <trkpt lat="49.02062" lon="-1.45505">
        <ele>62.62</ele>
        <time>2021-07-30T16:49:20Z</time>
      </trkpt>
      <trkpt lat="49.01837" lon="-1.45537">
        <ele>48.2</ele>
        <time>2021-07-30T16:49:35Z</time>
      </trkpt>
      <trkpt lat="49.01571" lon="-1.45577">
        <ele>32.34</ele>
        <time>2021-07-30T16:49:53Z</time>
      </trkpt>
      <trkpt lat="49.01394" lon="-1.45619">
        <ele>29.46</ele>
        <time>2021-07-30T16:50:04Z</time>
      </trkpt>
      <trkpt lat="49.01168" lon="-1.45669">
        <ele>27.53</ele>
        <time>2021-07-30T16:50:15Z</time>
      </trkpt>
      <trkpt lat="49.00961" lon="-1.45715">
        <ele>27.05</ele>
        <time>2021-07-30T16:50:25Z</time>
      </trkpt>
      <trkpt lat="49.00797" lon="-1.45753">
        <ele>22.73</ele>
        <time>2021-07-30T16:50:37Z</time>
      </trkpt>
      <trkpt lat="49.00699" lon="-1.45775">
        <ele>20.32</ele>
        <time>2021-07-30T16:50:46Z</time>
      </trkpt>
      <trkpt lat="49.00476" lon="-1.45827">
        <ele>10.71</ele>
        <time>2021-07-30T16:51:03Z</time>
      </trkpt>
      <trkpt lat="49.00264" lon="-1.45875">
        <ele>9.75</ele>
        <time>2021-07-30T16:51:20Z</time>
      </trkpt>
      <trkpt lat="49.00129" lon="-1.45905">
        <ele>14.08</ele>
        <time>2021-07-30T16:51:33Z</time>
      </trkpt>
      <trkpt lat="48.99955" lon="-1.45946">
        <ele>12.63</ele>
        <time>2021-07-30T16:51:50Z</time>
      </trkpt>
      <trkpt lat="48.99759" lon="-1.45989">
        <ele>6.87</ele>
        <time>2021-07-30T16:52:08Z</time>
      </trkpt>
      <trkpt lat="48.99672" lon="-1.46025">
        <ele>7.35</ele>
        <time>2021-07-30T16:52:17Z</time>
      </trkpt>
      <trkpt lat="48.99567" lon="-1.46088">
        <ele>5.91</ele>
        <time>2021-07-30T16:52:30Z</time>
      </trkpt>
      <trkpt lat="48.99561" lon="-1.46095">
        <ele>6.39</ele>
        <time>2021-07-30T16:52:31Z</time>
      </trkpt>
      <trkpt lat="48.99556" lon="-1.46104">
        <ele>6.39</ele>
        <time>2021-07-30T16:52:32Z</time>
      </trkpt>
      <trkpt lat="48.99551" lon="-1.46113">
        <ele>5.91</ele>
        <time>2021-07-30T16:52:33Z</time>
      </trkpt>
      <trkpt lat="48.99546" lon="-1.46123">
        <ele>5.91</ele>
        <time>2021-07-30T16:52:34Z</time>
      </trkpt>
      <trkpt lat="48.99544" lon="-1.46135">
        <ele>5.91</ele>
        <time>2021-07-30T16:52:35Z</time>
      </trkpt>
      <trkpt lat="48.99497" lon="-1.46288">
        <ele>9.75</ele>
        <time>2021-07-30T16:52:47Z</time>
      </trkpt>
      <trkpt lat="48.99444" lon="-1.46368">
        <ele>10.71</ele>
        <time>2021-07-30T16:52:57Z</time>
      </trkpt>
      <trkpt lat="48.99345" lon="-1.46451">
        <ele>11.19</ele>
        <time>2021-07-30T16:53:06Z</time>
      </trkpt>
      <trkpt lat="48.99242" lon="-1.46557">
        <ele>12.15</ele>
        <time>2021-07-30T16:53:14Z</time>
      </trkpt>
      <trkpt lat="48.99136" lon="-1.4671">
        <ele>12.63</ele>
        <time>2021-07-30T16:53:22Z</time>
      </trkpt>
      <trkpt lat="48.9905" lon="-1.46792">
        <ele>9.75</ele>
        <time>2021-07-30T16:53:28Z</time>
      </trkpt>
      <trkpt lat="48.99035" lon="-1.46802">
        <ele>9.27</ele>
        <time>2021-07-30T16:53:29Z</time>
      </trkpt>
      <trkpt lat="48.98873" lon="-1.46858">
        <ele>8.79</ele>
        <time>2021-07-30T16:53:39Z</time>
      </trkpt>
      <trkpt lat="48.98691" lon="-1.46858">
        <ele>9.27</ele>
        <time>2021-07-30T16:53:49Z</time>
      </trkpt>
      <trkpt lat="48.98334" lon="-1.46843">
        <ele>14.56</ele>
        <time>2021-07-30T16:54:08Z</time>
      </trkpt>
      <trkpt lat="48.97908" lon="-1.46821">
        <ele>21.77</ele>
        <time>2021-07-30T16:54:31Z</time>
      </trkpt>
      <trkpt lat="48.97682" lon="-1.46809">
        <ele>13.6</ele>
        <time>2021-07-30T16:54:44Z</time>
      </trkpt>
      <trkpt lat="48.97503" lon="-1.468">
        <ele>17.92</ele>
        <time>2021-07-30T16:54:56Z</time>
      </trkpt>
      <trkpt lat="48.97313" lon="-1.4679">
        <ele>23.69</ele>
        <time>2021-07-30T16:55:11Z</time>
      </trkpt>
      <trkpt lat="48.97238" lon="-1.46786">
        <ele>26.57</ele>
        <time>2021-07-30T16:55:20Z</time>
      </trkpt>
      <trkpt lat="48.97151" lon="-1.46781">
        <ele>27.53</ele>
        <time>2021-07-30T16:55:34Z</time>
      </trkpt>
      <trkpt lat="48.97099" lon="-1.4678">
        <ele>28.5</ele>
        <time>2021-07-30T16:55:43Z</time>
      </trkpt>
      <trkpt lat="48.97079" lon="-1.46783">
        <ele>29.46</ele>
        <time>2021-07-30T16:56:00Z</time>
      </trkpt>
      <trkpt lat="48.9705" lon="-1.46795">
        <ele>29.46</ele>
        <time>2021-07-30T16:56:10Z</time>
      </trkpt>
      <trkpt lat="48.96982" lon="-1.46836">
        <ele>33.78</ele>
        <time>2021-07-30T16:56:19Z</time>
      </trkpt>
      <trkpt lat="48.96904" lon="-1.46887">
        <ele>37.63</ele>
        <time>2021-07-30T16:56:29Z</time>
      </trkpt>
      <trkpt lat="48.96848" lon="-1.46924">
        <ele>40.03</ele>
        <time>2021-07-30T16:56:41Z</time>
      </trkpt>
      <trkpt lat="48.96792" lon="-1.46957">
        <ele>41.47</ele>
        <time>2021-07-30T16:56:51Z</time>
      </trkpt>
      <trkpt lat="48.9668" lon="-1.4703">
        <ele>45.32</ele>
        <time>2021-07-30T16:57:02Z</time>
      </trkpt>
      <trkpt lat="48.96558" lon="-1.47107">
        <ele>47.24</ele>
        <time>2021-07-30T16:57:12Z</time>
      </trkpt>
      <trkpt lat="48.96353" lon="-1.47241">
        <ele>52.05</ele>
        <time>2021-07-30T16:57:24Z</time>
      </trkpt>
      <trkpt lat="48.96129" lon="-1.47385">
        <ele>54.93</ele>
        <time>2021-07-30T16:57:37Z</time>
      </trkpt>
      <trkpt lat="48.95813" lon="-1.47589">
        <ele>48.2</ele>
        <time>2021-07-30T16:57:54Z</time>
      </trkpt>
      <trkpt lat="48.95487" lon="-1.478">
        <ele>54.93</ele>
        <time>2021-07-30T16:58:13Z</time>
      </trkpt>
      <trkpt lat="48.9517" lon="-1.48004">
        <ele>45.32</ele>
        <time>2021-07-30T16:58:31Z</time>
      </trkpt>
      <trkpt lat="48.94896" lon="-1.48181">
        <ele>51.09</ele>
        <time>2021-07-30T16:58:48Z</time>
      </trkpt>
      <trkpt lat="48.94466" lon="-1.4846">
        <ele>61.66</ele>
        <time>2021-07-30T16:59:12Z</time>
      </trkpt>
      <trkpt lat="48.94007" lon="-1.48751">
        <ele>59.26</ele>
        <time>2021-07-30T16:59:37Z</time>
      </trkpt>
      <trkpt lat="48.93684" lon="-1.48953">
        <ele>58.78</ele>
        <time>2021-07-30T16:59:55Z</time>
      </trkpt>
      <trkpt lat="48.93627" lon="-1.48991">
        <ele>59.26</ele>
        <time>2021-07-30T17:00:00Z</time>
      </trkpt>
      <trkpt lat="48.9352" lon="-1.49057">
        <ele>60.22</ele>
        <time>2021-07-30T17:00:11Z</time>
      </trkpt>
      <trkpt lat="48.93345" lon="-1.49168">
        <ele>60.7</ele>
        <time>2021-07-30T17:00:27Z</time>
      </trkpt>
      <trkpt lat="48.93147" lon="-1.4929">
        <ele>64.07</ele>
        <time>2021-07-30T17:00:44Z</time>
      </trkpt>
      <trkpt lat="48.93001" lon="-1.49384">
        <ele>63.58</ele>
        <time>2021-07-30T17:00:54Z</time>
      </trkpt>
      <trkpt lat="48.92702" lon="-1.49572">
        <ele>50.13</ele>
        <time>2021-07-30T17:01:10Z</time>
      </trkpt>
      <trkpt lat="48.92376" lon="-1.49777">
        <ele>39.55</ele>
        <time>2021-07-30T17:01:29Z</time>
      </trkpt>
      <trkpt lat="48.91979" lon="-1.50026">
        <ele>54.93</ele>
        <time>2021-07-30T17:01:51Z</time>
      </trkpt>
      <trkpt lat="48.91713" lon="-1.50192">
        <ele>66.95</ele>
        <time>2021-07-30T17:02:07Z</time>
      </trkpt>
      <trkpt lat="48.91434" lon="-1.50368">
        <ele>65.51</ele>
        <time>2021-07-30T17:02:25Z</time>
      </trkpt>
      <trkpt lat="48.91319" lon="-1.50425">
        <ele>63.1</ele>
        <time>2021-07-30T17:02:34Z</time>
      </trkpt>
      <trkpt lat="48.91298" lon="-1.50432">
        <ele>63.58</ele>
        <time>2021-07-30T17:02:37Z</time>
      </trkpt>
      <trkpt lat="48.91293" lon="-1.50434">
        <ele>64.07</ele>
        <time>2021-07-30T17:02:38Z</time>
      </trkpt>
      <trkpt lat="48.91289" lon="-1.50435">
        <ele>64.55</ele>
        <time>2021-07-30T17:02:39Z</time>
      </trkpt>
      <trkpt lat="48.91278" lon="-1.50456">
        <ele>64.55</ele>
        <time>2021-07-30T17:02:43Z</time>
      </trkpt>
      <trkpt lat="48.91275" lon="-1.50458">
        <ele>64.55</ele>
        <time>2021-07-30T17:02:44Z</time>
      </trkpt>
      <trkpt lat="48.91271" lon="-1.50459">
        <ele>64.55</ele>
        <time>2021-07-30T17:02:45Z</time>
      </trkpt>
      <trkpt lat="48.91267" lon="-1.50457">
        <ele>64.55</ele>
        <time>2021-07-30T17:02:46Z</time>
      </trkpt>
      <trkpt lat="48.91263" lon="-1.50454">
        <ele>64.55</ele>
        <time>2021-07-30T17:02:47Z</time>
      </trkpt>
      <trkpt lat="48.91261" lon="-1.50448">
        <ele>64.07</ele>
        <time>2021-07-30T17:02:48Z</time>
      </trkpt>
      <trkpt lat="48.9126" lon="-1.5044">
        <ele>63.58</ele>
        <time>2021-07-30T17:02:49Z</time>
      </trkpt>
      <trkpt lat="48.91251" lon="-1.50429">
        <ele>63.1</ele>
        <time>2021-07-30T17:02:50Z</time>
      </trkpt>
      <trkpt lat="48.91244" lon="-1.50427">
        <ele>63.1</ele>
        <time>2021-07-30T17:02:51Z</time>
      </trkpt>
      <trkpt lat="48.91228" lon="-1.50423">
        <ele>63.1</ele>
        <time>2021-07-30T17:02:52Z</time>
      </trkpt>
      <trkpt lat="48.91142" lon="-1.5039">
        <ele>61.18</ele>
        <time>2021-07-30T17:02:59Z</time>
      </trkpt>
      <trkpt lat="48.91" lon="-1.50298">
        <ele>58.78</ele>
        <time>2021-07-30T17:03:10Z</time>
      </trkpt>
      <trkpt lat="48.90864" lon="-1.5024">
        <ele>52.05</ele>
        <time>2021-07-30T17:03:18Z</time>
      </trkpt>
      <trkpt lat="48.90715" lon="-1.5025">
        <ele>51.57</ele>
        <time>2021-07-30T17:03:26Z</time>
      </trkpt>
      <trkpt lat="48.90556" lon="-1.50252">
        <ele>50.61</ele>
        <time>2021-07-30T17:03:35Z</time>
      </trkpt>
      <trkpt lat="48.90382" lon="-1.50174">
        <ele>50.13</ele>
        <time>2021-07-30T17:03:46Z</time>
      </trkpt>
      <trkpt lat="48.90254" lon="-1.50116">
        <ele>53.01</ele>
        <time>2021-07-30T17:03:56Z</time>
      </trkpt>
      <trkpt lat="48.90203" lon="-1.50104">
        <ele>53.49</ele>
        <time>2021-07-30T17:04:04Z</time>
      </trkpt>
      <trkpt lat="48.90196" lon="-1.50103">
        <ele>53.49</ele>
        <time>2021-07-30T17:04:05Z</time>
      </trkpt>
      <trkpt lat="48.9019" lon="-1.50101">
        <ele>53.97</ele>
        <time>2021-07-30T17:04:06Z</time>
      </trkpt>
      <trkpt lat="48.90178" lon="-1.50109">
        <ele>54.45</ele>
        <time>2021-07-30T17:04:08Z</time>
      </trkpt>
      <trkpt lat="48.90172" lon="-1.50114">
        <ele>54.45</ele>
        <time>2021-07-30T17:04:09Z</time>
      </trkpt>
      <trkpt lat="48.90163" lon="-1.50117">
        <ele>54.93</ele>
        <time>2021-07-30T17:04:10Z</time>
      </trkpt>
      <trkpt lat="48.90156" lon="-1.50117">
        <ele>55.41</ele>
        <time>2021-07-30T17:04:11Z</time>
      </trkpt>
      <trkpt lat="48.90147" lon="-1.50113">
        <ele>55.89</ele>
        <time>2021-07-30T17:04:12Z</time>
      </trkpt>
      <trkpt lat="48.90137" lon="-1.50095">
        <ele>55.89</ele>
        <time>2021-07-30T17:04:13Z</time>
      </trkpt>
      <trkpt lat="48.90137" lon="-1.50095">
        <ele>55.89</ele>
        <time>2021-07-30T17:04:14Z</time>
      </trkpt>
      <trkpt lat="48.90129" lon="-1.50071">
        <ele>56.37</ele>
        <time>2021-07-30T17:04:16Z</time>
      </trkpt>
      <trkpt lat="48.90122" lon="-1.50065">
        <ele>56.86</ele>
        <time>2021-07-30T17:04:17Z</time>
      </trkpt>
      <trkpt lat="48.90114" lon="-1.50058">
        <ele>57.34</ele>
        <time>2021-07-30T17:04:18Z</time>
      </trkpt>
      <trkpt lat="48.90106" lon="-1.50051">
        <ele>58.78</ele>
        <time>2021-07-30T17:04:19Z</time>
      </trkpt>
      <trkpt lat="48.90097" lon="-1.50047">
        <ele>59.74</ele>
        <time>2021-07-30T17:04:20Z</time>
      </trkpt>
      <trkpt lat="48.89979" lon="-1.50023">
        <ele>64.55</ele>
        <time>2021-07-30T17:04:29Z</time>
      </trkpt>
      <trkpt lat="48.89821" lon="-1.50045">
        <ele>67.91</ele>
        <time>2021-07-30T17:04:39Z</time>
      </trkpt>
      <trkpt lat="48.89694" lon="-1.50115">
        <ele>69.83</ele>
        <time>2021-07-30T17:04:48Z</time>
      </trkpt>
      <trkpt lat="48.89627" lon="-1.50169">
        <ele>67.43</ele>
        <time>2021-07-30T17:04:55Z</time>
      </trkpt>
      <trkpt lat="48.89604" lon="-1.50191">
        <ele>66.95</ele>
        <time>2021-07-30T17:05:02Z</time>
      </trkpt>
      <trkpt lat="48.896" lon="-1.50209">
        <ele>66.95</ele>
        <time>2021-07-30T17:05:06Z</time>
      </trkpt>
      <trkpt lat="48.89599" lon="-1.50218">
        <ele>66.95</ele>
        <time>2021-07-30T17:05:07Z</time>
      </trkpt>
      <trkpt lat="48.89596" lon="-1.50225">
        <ele>66.95</ele>
        <time>2021-07-30T17:05:08Z</time>
      </trkpt>
      <trkpt lat="48.89588" lon="-1.50225">
        <ele>66.47</ele>
        <time>2021-07-30T17:05:09Z</time>
      </trkpt>
      <trkpt lat="48.89578" lon="-1.50222">
        <ele>66.47</ele>
        <time>2021-07-30T17:05:10Z</time>
      </trkpt>
      <trkpt lat="48.89574" lon="-1.50228">
        <ele>65.99</ele>
        <time>2021-07-30T17:05:11Z</time>
      </trkpt>
      <trkpt lat="48.89569" lon="-1.50234">
        <ele>65.99</ele>
        <time>2021-07-30T17:05:12Z</time>
      </trkpt>
      <trkpt lat="48.89556" lon="-1.50251">
        <ele>65.51</ele>
        <time>2021-07-30T17:05:13Z</time>
      </trkpt>
      <trkpt lat="48.89493" lon="-1.50344">
        <ele>62.14</ele>
        <time>2021-07-30T17:05:21Z</time>
      </trkpt>
      <trkpt lat="48.89408" lon="-1.50531">
        <ele>57.82</ele>
        <time>2021-07-30T17:05:30Z</time>
      </trkpt>
      <trkpt lat="48.89276" lon="-1.50926">
        <ele>47.24</ele>
        <time>2021-07-30T17:05:44Z</time>
      </trkpt>
      <trkpt lat="48.89106" lon="-1.51434">
        <ele>39.55</ele>
        <time>2021-07-30T17:06:03Z</time>
      </trkpt>
      <trkpt lat="48.88983" lon="-1.51808">
        <ele>32.34</ele>
        <time>2021-07-30T17:06:18Z</time>
      </trkpt>
      <trkpt lat="48.88923" lon="-1.51984">
        <ele>24.17</ele>
        <time>2021-07-30T17:06:27Z</time>
      </trkpt>
      <trkpt lat="48.88895" lon="-1.52079">
        <ele>20.32</ele>
        <time>2021-07-30T17:06:34Z</time>
      </trkpt>
      <trkpt lat="48.88892" lon="-1.52088">
        <ele>20.32</ele>
        <time>2021-07-30T17:06:35Z</time>
      </trkpt>
      <trkpt lat="48.88889" lon="-1.52097">
        <ele>20.32</ele>
        <time>2021-07-30T17:06:36Z</time>
      </trkpt>
      <trkpt lat="48.88888" lon="-1.52101">
        <ele>20.32</ele>
        <time>2021-07-30T17:06:37Z</time>
      </trkpt>
      <trkpt lat="48.88894" lon="-1.52117">
        <ele>20.32</ele>
        <time>2021-07-30T17:06:38Z</time>
      </trkpt>
      <trkpt lat="48.8889" lon="-1.52132">
        <ele>20.81</ele>
        <time>2021-07-30T17:06:39Z</time>
      </trkpt>
      <trkpt lat="48.88888" lon="-1.52135">
        <ele>20.81</ele>
        <time>2021-07-30T17:06:40Z</time>
      </trkpt>
      <trkpt lat="48.88873" lon="-1.52135">
        <ele>20.81</ele>
        <time>2021-07-30T17:06:41Z</time>
      </trkpt>
      <trkpt lat="48.88869" lon="-1.52141">
        <ele>20.32</ele>
        <time>2021-07-30T17:06:42Z</time>
      </trkpt>
      <trkpt lat="48.88864" lon="-1.5215">
        <ele>20.32</ele>
        <time>2021-07-30T17:06:43Z</time>
      </trkpt>
      <trkpt lat="48.88803" lon="-1.52248">
        <ele>20.32</ele>
        <time>2021-07-30T17:06:50Z</time>
      </trkpt>
      <trkpt lat="48.88615" lon="-1.52486">
        <ele>33.78</ele>
        <time>2021-07-30T17:07:04Z</time>
      </trkpt>
      <trkpt lat="48.88459" lon="-1.52681">
        <ele>40.03</ele>
        <time>2021-07-30T17:07:16Z</time>
      </trkpt>
      <trkpt lat="48.88426" lon="-1.5272">
        <ele>41.47</ele>
        <time>2021-07-30T17:07:21Z</time>
      </trkpt>
      <trkpt lat="48.88421" lon="-1.52726">
        <ele>41.95</ele>
        <time>2021-07-30T17:07:22Z</time>
      </trkpt>
      <trkpt lat="48.8842" lon="-1.52727">
        <ele>42.44</ele>
        <time>2021-07-30T17:07:23Z</time>
      </trkpt>
      <trkpt lat="48.88417" lon="-1.52746">
        <ele>42.92</ele>
        <time>2021-07-30T17:07:24Z</time>
      </trkpt>
      <trkpt lat="48.88412" lon="-1.52751">
        <ele>42.92</ele>
        <time>2021-07-30T17:07:25Z</time>
      </trkpt>
      <trkpt lat="48.884" lon="-1.52744">
        <ele>43.4</ele>
        <time>2021-07-30T17:07:26Z</time>
      </trkpt>
      <trkpt lat="48.88396" lon="-1.52751">
        <ele>43.4</ele>
        <time>2021-07-30T17:07:27Z</time>
      </trkpt>
      <trkpt lat="48.88327" lon="-1.52844">
        <ele>44.84</ele>
        <time>2021-07-30T17:07:37Z</time>
      </trkpt>
      <trkpt lat="48.8822" lon="-1.52968">
        <ele>48.68</ele>
        <time>2021-07-30T17:07:50Z</time>
      </trkpt>
      <trkpt lat="48.88078" lon="-1.53072">
        <ele>54.93</ele>
        <time>2021-07-30T17:08:04Z</time>
      </trkpt>
      <trkpt lat="48.88024" lon="-1.53112">
        <ele>58.3</ele>
        <time>2021-07-30T17:08:11Z</time>
      </trkpt>
      <trkpt lat="48.87953" lon="-1.53162">
        <ele>61.18</ele>
        <time>2021-07-30T17:08:19Z</time>
      </trkpt>
      <trkpt lat="48.8779" lon="-1.53282">
        <ele>65.99</ele>
        <time>2021-07-30T17:08:32Z</time>
      </trkpt>
      <trkpt lat="48.87544" lon="-1.53459">
        <ele>69.35</ele>
        <time>2021-07-30T17:08:48Z</time>
      </trkpt>
      <trkpt lat="48.87343" lon="-1.53603">
        <ele>71.76</ele>
        <time>2021-07-30T17:09:01Z</time>
      </trkpt>
      <trkpt lat="48.87213" lon="-1.53697">
        <ele>75.12</ele>
        <time>2021-07-30T17:09:10Z</time>
      </trkpt>
      <trkpt lat="48.87021" lon="-1.53837">
        <ele>77.04</ele>
        <time>2021-07-30T17:09:24Z</time>
      </trkpt>
      <trkpt lat="48.86909" lon="-1.5392">
        <ele>77.04</ele>
        <time>2021-07-30T17:09:33Z</time>
      </trkpt>
      <trkpt lat="48.86835" lon="-1.53972">
        <ele>77.04</ele>
        <time>2021-07-30T17:09:42Z</time>
      </trkpt>
      <trkpt lat="48.86691" lon="-1.54066">
        <ele>76.08</ele>
        <time>2021-07-30T17:09:58Z</time>
      </trkpt>
      <trkpt lat="48.86617" lon="-1.54093">
        <ele>75.6</ele>
        <time>2021-07-30T17:10:08Z</time>
      </trkpt>
      <trkpt lat="48.86613" lon="-1.54094">
        <ele>75.6</ele>
        <time>2021-07-30T17:10:09Z</time>
      </trkpt>
      <trkpt lat="48.86609" lon="-1.54094">
        <ele>75.6</ele>
        <time>2021-07-30T17:10:10Z</time>
      </trkpt>
      <trkpt lat="48.86606" lon="-1.54105">
        <ele>75.12</ele>
        <time>2021-07-30T17:10:11Z</time>
      </trkpt>
      <trkpt lat="48.86605" lon="-1.54109">
        <ele>74.64</ele>
        <time>2021-07-30T17:10:12Z</time>
      </trkpt>
      <trkpt lat="48.86595" lon="-1.54118">
        <ele>74.16</ele>
        <time>2021-07-30T17:10:13Z</time>
      </trkpt>
      <trkpt lat="48.86588" lon="-1.54136">
        <ele>74.16</ele>
        <time>2021-07-30T17:10:14Z</time>
      </trkpt>
      <trkpt lat="48.86585" lon="-1.54144">
        <ele>73.68</ele>
        <time>2021-07-30T17:10:15Z</time>
      </trkpt>
      <trkpt lat="48.86585" lon="-1.54144">
        <ele>74.16</ele>
        <time>2021-07-30T17:10:16Z</time>
      </trkpt>
      <trkpt lat="48.86582" lon="-1.54151">
        <ele>74.16</ele>
        <time>2021-07-30T17:10:17Z</time>
      </trkpt>
      <trkpt lat="48.86571" lon="-1.54163">
        <ele>74.64</ele>
        <time>2021-07-30T17:10:18Z</time>
      </trkpt>
      <trkpt lat="48.86501" lon="-1.5422">
        <ele>75.12</ele>
        <time>2021-07-30T17:10:27Z</time>
      </trkpt>
      <trkpt lat="48.8645" lon="-1.5429">
        <ele>74.16</ele>
        <time>2021-07-30T17:10:33Z</time>
      </trkpt>
      <trkpt lat="48.86436" lon="-1.54317">
        <ele>73.2</ele>
        <time>2021-07-30T17:10:34Z</time>
      </trkpt>
      <trkpt lat="48.86322" lon="-1.54565">
        <ele>70.31</ele>
        <time>2021-07-30T17:10:52Z</time>
      </trkpt>
      <trkpt lat="48.86233" lon="-1.54752">
        <ele>70.79</ele>
        <time>2021-07-30T17:11:04Z</time>
      </trkpt>
      <trkpt lat="48.86082" lon="-1.55072">
        <ele>66.47</ele>
        <time>2021-07-30T17:11:20Z</time>
      </trkpt>
      <trkpt lat="48.85957" lon="-1.55337">
        <ele>64.07</ele>
        <time>2021-07-30T17:11:35Z</time>
      </trkpt>
      <trkpt lat="48.85908" lon="-1.55441">
        <ele>63.1</ele>
        <time>2021-07-30T17:11:43Z</time>
      </trkpt>
      <trkpt lat="48.85896" lon="-1.55466">
        <ele>62.62</ele>
        <time>2021-07-30T17:11:49Z</time>
      </trkpt>
      <trkpt lat="48.85893" lon="-1.55472">
        <ele>63.1</ele>
        <time>2021-07-30T17:11:50Z</time>
      </trkpt>
      <trkpt lat="48.8589" lon="-1.55478">
        <ele>63.1</ele>
        <time>2021-07-30T17:11:51Z</time>
      </trkpt>
      <trkpt lat="48.85887" lon="-1.55485">
        <ele>63.1</ele>
        <time>2021-07-30T17:11:52Z</time>
      </trkpt>
      <trkpt lat="48.85886" lon="-1.55487">
        <ele>63.1</ele>
        <time>2021-07-30T17:11:53Z</time>
      </trkpt>
      <trkpt lat="48.85888" lon="-1.55507">
        <ele>63.1</ele>
        <time>2021-07-30T17:11:54Z</time>
      </trkpt>
      <trkpt lat="48.85886" lon="-1.55515">
        <ele>63.1</ele>
        <time>2021-07-30T17:11:55Z</time>
      </trkpt>
      <trkpt lat="48.85878" lon="-1.55516">
        <ele>63.1</ele>
        <time>2021-07-30T17:11:56Z</time>
      </trkpt>
      <trkpt lat="48.85869" lon="-1.55523">
        <ele>62.62</ele>
        <time>2021-07-30T17:11:57Z</time>
      </trkpt>
      <trkpt lat="48.85864" lon="-1.55532">
        <ele>62.62</ele>
        <time>2021-07-30T17:11:58Z</time>
      </trkpt>
      <trkpt lat="48.85859" lon="-1.55544">
        <ele>61.66</ele>
        <time>2021-07-30T17:11:59Z</time>
      </trkpt>
      <trkpt lat="48.85785" lon="-1.55703">
        <ele>61.18</ele>
        <time>2021-07-30T17:12:08Z</time>
      </trkpt>
      <trkpt lat="48.85702" lon="-1.55879">
        <ele>59.26</ele>
        <time>2021-07-30T17:12:18Z</time>
      </trkpt>
      <trkpt lat="48.85641" lon="-1.56011">
        <ele>60.22</ele>
        <time>2021-07-30T17:12:29Z</time>
      </trkpt>
      <trkpt lat="48.85559" lon="-1.56188">
        <ele>64.55</ele>
        <time>2021-07-30T17:12:42Z</time>
      </trkpt>
      <trkpt lat="48.85534" lon="-1.56241">
        <ele>65.51</ele>
        <time>2021-07-30T17:12:50Z</time>
      </trkpt>
      <trkpt lat="48.85492" lon="-1.56329">
        <ele>66.47</ele>
        <time>2021-07-30T17:13:02Z</time>
      </trkpt>
      <trkpt lat="48.85431" lon="-1.56453">
        <ele>64.07</ele>
        <time>2021-07-30T17:13:19Z</time>
      </trkpt>
      <trkpt lat="48.85408" lon="-1.56502">
        <ele>63.58</ele>
        <time>2021-07-30T17:13:30Z</time>
      </trkpt>
      <trkpt lat="48.85405" lon="-1.56513">
        <ele>64.07</ele>
        <time>2021-07-30T17:13:32Z</time>
      </trkpt>
      <trkpt lat="48.85402" lon="-1.56519">
        <ele>64.07</ele>
        <time>2021-07-30T17:13:33Z</time>
      </trkpt>
      <trkpt lat="48.85401" lon="-1.56521">
        <ele>64.07</ele>
        <time>2021-07-30T17:13:34Z</time>
      </trkpt>
      <trkpt lat="48.85393" lon="-1.5653">
        <ele>63.1</ele>
        <time>2021-07-30T17:13:35Z</time>
      </trkpt>
      <trkpt lat="48.8539" lon="-1.56538">
        <ele>63.1</ele>
        <time>2021-07-30T17:13:36Z</time>
      </trkpt>
      <trkpt lat="48.8534" lon="-1.56649">
        <ele>61.66</ele>
        <time>2021-07-30T17:13:47Z</time>
      </trkpt>
      <trkpt lat="48.85319" lon="-1.56695">
        <ele>60.7</ele>
        <time>2021-07-30T17:13:57Z</time>
      </trkpt>
      <trkpt lat="48.85289" lon="-1.56759">
        <ele>59.74</ele>
        <time>2021-07-30T17:14:09Z</time>
      </trkpt>
      <trkpt lat="48.85266" lon="-1.56816">
        <ele>59.26</ele>
        <time>2021-07-30T17:14:21Z</time>
      </trkpt>
      <trkpt lat="48.85263" lon="-1.56837">
        <ele>58.78</ele>
        <time>2021-07-30T17:14:27Z</time>
      </trkpt>
      <trkpt lat="48.85262" lon="-1.56841">
        <ele>58.78</ele>
        <time>2021-07-30T17:14:28Z</time>
      </trkpt>
      <trkpt lat="48.85253" lon="-1.5684">
        <ele>58.78</ele>
        <time>2021-07-30T17:14:29Z</time>
      </trkpt>
      <trkpt lat="48.8525" lon="-1.56845">
        <ele>58.78</ele>
        <time>2021-07-30T17:14:30Z</time>
      </trkpt>
      <trkpt lat="48.85246" lon="-1.56851">
        <ele>58.78</ele>
        <time>2021-07-30T17:14:31Z</time>
      </trkpt>
      <trkpt lat="48.85242" lon="-1.56858">
        <ele>58.3</ele>
        <time>2021-07-30T17:14:32Z</time>
      </trkpt>
      <trkpt lat="48.85239" lon="-1.56865">
        <ele>58.3</ele>
        <time>2021-07-30T17:14:33Z</time>
      </trkpt>
      <trkpt lat="48.85177" lon="-1.56993">
        <ele>56.37</ele>
        <time>2021-07-30T17:14:47Z</time>
      </trkpt>
      <trkpt lat="48.85142" lon="-1.57068">
        <ele>55.41</ele>
        <time>2021-07-30T17:14:58Z</time>
      </trkpt>
      <trkpt lat="48.8511" lon="-1.57139">
        <ele>53.97</ele>
        <time>2021-07-30T17:15:07Z</time>
      </trkpt>
      <trkpt lat="48.85022" lon="-1.57322">
        <ele>48.68</ele>
        <time>2021-07-30T17:15:26Z</time>
      </trkpt>
      <trkpt lat="48.8497" lon="-1.57438">
        <ele>44.84</ele>
        <time>2021-07-30T17:15:40Z</time>
      </trkpt>
      <trkpt lat="48.84955" lon="-1.57485">
        <ele>44.36</ele>
        <time>2021-07-30T17:15:48Z</time>
      </trkpt>
      <trkpt lat="48.84953" lon="-1.5749">
        <ele>44.36</ele>
        <time>2021-07-30T17:15:49Z</time>
      </trkpt>
      <trkpt lat="48.84946" lon="-1.57495">
        <ele>44.36</ele>
        <time>2021-07-30T17:15:51Z</time>
      </trkpt>
      <trkpt lat="48.84943" lon="-1.57499">
        <ele>44.36</ele>
        <time>2021-07-30T17:15:52Z</time>
      </trkpt>
      <trkpt lat="48.8494" lon="-1.57505">
        <ele>43.88</ele>
        <time>2021-07-30T17:15:53Z</time>
      </trkpt>
      <trkpt lat="48.84894" lon="-1.57594">
        <ele>40.51</ele>
        <time>2021-07-30T17:16:07Z</time>
      </trkpt>
      <trkpt lat="48.84844" lon="-1.57701">
        <ele>35.71</ele>
        <time>2021-07-30T17:16:23Z</time>
      </trkpt>
      <trkpt lat="48.84804" lon="-1.57776">
        <ele>31.86</ele>
        <time>2021-07-30T17:16:37Z</time>
      </trkpt>
      <trkpt lat="48.848" lon="-1.57792">
        <ele>31.86</ele>
        <time>2021-07-30T17:16:39Z</time>
      </trkpt>
      <trkpt lat="48.84765" lon="-1.57864">
        <ele>28.5</ele>
        <time>2021-07-30T17:16:51Z</time>
      </trkpt>
      <trkpt lat="48.8476" lon="-1.57875">
        <ele>28.98</ele>
        <time>2021-07-30T17:16:57Z</time>
      </trkpt>
      <trkpt lat="48.84746" lon="-1.57906">
        <ele>27.53</ele>
        <time>2021-07-30T17:17:15Z</time>
      </trkpt>
      <trkpt lat="48.84713" lon="-1.57985">
        <ele>26.57</ele>
        <time>2021-07-30T17:17:26Z</time>
      </trkpt>
      <trkpt lat="48.84687" lon="-1.5804">
        <ele>26.09</ele>
        <time>2021-07-30T17:17:33Z</time>
      </trkpt>
      <trkpt lat="48.84683" lon="-1.58047">
        <ele>26.09</ele>
        <time>2021-07-30T17:17:34Z</time>
      </trkpt>
      <trkpt lat="48.84676" lon="-1.58059">
        <ele>26.09</ele>
        <time>2021-07-30T17:17:36Z</time>
      </trkpt>
      <trkpt lat="48.84636" lon="-1.58139">
        <ele>26.09</ele>
        <time>2021-07-30T17:17:46Z</time>
      </trkpt>
      <trkpt lat="48.84545" lon="-1.58334">
        <ele>28.98</ele>
        <time>2021-07-30T17:18:00Z</time>
      </trkpt>
      <trkpt lat="48.8452" lon="-1.58386">
        <ele>29.46</ele>
        <time>2021-07-30T17:18:06Z</time>
      </trkpt>
      <trkpt lat="48.84512" lon="-1.58398">
        <ele>29.94</ele>
        <time>2021-07-30T17:18:08Z</time>
      </trkpt>
      <trkpt lat="48.84508" lon="-1.58407">
        <ele>29.94</ele>
        <time>2021-07-30T17:18:09Z</time>
      </trkpt>
      <trkpt lat="48.84447" lon="-1.58544">
        <ele>31.86</ele>
        <time>2021-07-30T17:18:20Z</time>
      </trkpt>
      <trkpt lat="48.84402" lon="-1.58642">
        <ele>31.86</ele>
        <time>2021-07-30T17:18:31Z</time>
      </trkpt>
      <trkpt lat="48.84378" lon="-1.58691">
        <ele>32.82</ele>
        <time>2021-07-30T17:18:40Z</time>
      </trkpt>
      <trkpt lat="48.84355" lon="-1.58737">
        <ele>33.78</ele>
        <time>2021-07-30T17:18:50Z</time>
      </trkpt>
      <trkpt lat="48.84355" lon="-1.58737">
        <ele>33.78</ele>
        <time>2021-07-30T17:18:51Z</time>
      </trkpt>
      <trkpt lat="48.84316" lon="-1.58821">
        <ele>33.3</ele>
        <time>2021-07-30T17:19:01Z</time>
      </trkpt>
      <trkpt lat="48.84301" lon="-1.58856">
        <ele>33.78</ele>
        <time>2021-07-30T17:19:10Z</time>
      </trkpt>
      <trkpt lat="48.8427" lon="-1.58918">
        <ele>34.74</ele>
        <time>2021-07-30T17:19:20Z</time>
      </trkpt>
      <trkpt lat="48.84227" lon="-1.59006">
        <ele>36.19</ele>
        <time>2021-07-30T17:19:33Z</time>
      </trkpt>
      <trkpt lat="48.84206" lon="-1.59055">
        <ele>35.71</ele>
        <time>2021-07-30T17:19:45Z</time>
      </trkpt>
      <trkpt lat="48.84157" lon="-1.59161">
        <ele>36.19</ele>
        <time>2021-07-30T17:19:56Z</time>
      </trkpt>
      <trkpt lat="48.84088" lon="-1.59306">
        <ele>33.78</ele>
        <time>2021-07-30T17:20:12Z</time>
      </trkpt>
      <trkpt lat="48.84052" lon="-1.59381">
        <ele>32.34</ele>
        <time>2021-07-30T17:20:20Z</time>
      </trkpt>
      <trkpt lat="48.84047" lon="-1.59389">
        <ele>31.86</ele>
        <time>2021-07-30T17:20:21Z</time>
      </trkpt>
      <trkpt lat="48.84041" lon="-1.59397">
        <ele>31.86</ele>
        <time>2021-07-30T17:20:22Z</time>
      </trkpt>
      <trkpt lat="48.83959" lon="-1.59494">
        <ele>32.34</ele>
        <time>2021-07-30T17:20:36Z</time>
      </trkpt>
      <trkpt lat="48.83954" lon="-1.59498">
        <ele>32.34</ele>
        <time>2021-07-30T17:20:37Z</time>
      </trkpt>
      <trkpt lat="48.83944" lon="-1.59507">
        <ele>32.34</ele>
        <time>2021-07-30T17:20:38Z</time>
      </trkpt>
      <trkpt lat="48.83944" lon="-1.59507">
        <ele>32.34</ele>
        <time>2021-07-30T17:20:39Z</time>
      </trkpt>
      <trkpt lat="48.83939" lon="-1.59507">
        <ele>31.86</ele>
        <time>2021-07-30T17:20:40Z</time>
      </trkpt>
      <trkpt lat="48.83934" lon="-1.59506">
        <ele>31.86</ele>
        <time>2021-07-30T17:20:41Z</time>
      </trkpt>
      <trkpt lat="48.83928" lon="-1.59505">
        <ele>31.86</ele>
        <time>2021-07-30T17:20:42Z</time>
      </trkpt>
      <trkpt lat="48.8392" lon="-1.59502">
        <ele>31.86</ele>
        <time>2021-07-30T17:20:43Z</time>
      </trkpt>
      <trkpt lat="48.83917" lon="-1.59495">
        <ele>32.34</ele>
        <time>2021-07-30T17:20:44Z</time>
      </trkpt>
      <trkpt lat="48.83914" lon="-1.59488">
        <ele>32.34</ele>
        <time>2021-07-30T17:20:45Z</time>
      </trkpt>
      <trkpt lat="48.83914" lon="-1.59488">
        <ele>32.82</ele>
        <time>2021-07-30T17:20:46Z</time>
      </trkpt>
      <trkpt lat="48.83911" lon="-1.59481">
        <ele>32.82</ele>
        <time>2021-07-30T17:20:47Z</time>
      </trkpt>
      <trkpt lat="48.8391" lon="-1.59476">
        <ele>32.82</ele>
        <time>2021-07-30T17:20:48Z</time>
      </trkpt>
      <trkpt lat="48.8391" lon="-1.59467">
        <ele>32.82</ele>
        <time>2021-07-30T17:20:49Z</time>
      </trkpt>
      <trkpt lat="48.83909" lon="-1.59458">
        <ele>32.82</ele>
        <time>2021-07-30T17:20:50Z</time>
      </trkpt>
      <trkpt lat="48.83906" lon="-1.59359">
        <ele>30.9</ele>
        <time>2021-07-30T17:21:00Z</time>
      </trkpt>
      <trkpt lat="48.83903" lon="-1.59344">
        <ele>30.9</ele>
        <time>2021-07-30T17:21:01Z</time>
      </trkpt>
      <trkpt lat="48.83903" lon="-1.59344">
        <ele>30.9</ele>
        <time>2021-07-30T17:21:02Z</time>
      </trkpt>
      <trkpt lat="48.83901" lon="-1.59338">
        <ele>30.42</ele>
        <time>2021-07-30T17:21:03Z</time>
      </trkpt>
      <trkpt lat="48.83898" lon="-1.59334">
        <ele>30.42</ele>
        <time>2021-07-30T17:21:04Z</time>
      </trkpt>
      <trkpt lat="48.83892" lon="-1.5933">
        <ele>30.42</ele>
        <time>2021-07-30T17:21:05Z</time>
      </trkpt>
      <trkpt lat="48.83892" lon="-1.5933">
        <ele>29.94</ele>
        <time>2021-07-30T17:21:06Z</time>
      </trkpt>
      <trkpt lat="48.83888" lon="-1.59332">
        <ele>30.42</ele>
        <time>2021-07-30T17:21:07Z</time>
      </trkpt>
      <trkpt lat="48.83884" lon="-1.59334">
        <ele>30.42</ele>
        <time>2021-07-30T17:21:08Z</time>
      </trkpt>
      <trkpt lat="48.8388" lon="-1.59335">
        <ele>29.94</ele>
        <time>2021-07-30T17:21:09Z</time>
      </trkpt>
      <trkpt lat="48.83877" lon="-1.5934">
        <ele>28.5</ele>
        <time>2021-07-30T17:21:10Z</time>
      </trkpt>
      <trkpt lat="48.83874" lon="-1.59347">
        <ele>27.53</ele>
        <time>2021-07-30T17:21:11Z</time>
      </trkpt>
      <trkpt lat="48.83871" lon="-1.59357">
        <ele>27.05</ele>
        <time>2021-07-30T17:21:12Z</time>
      </trkpt>
      <trkpt lat="48.83872" lon="-1.59366">
        <ele>26.09</ele>
        <time>2021-07-30T17:21:13Z</time>
      </trkpt>
      <trkpt lat="48.83881" lon="-1.59487">
        <ele>21.29</ele>
        <time>2021-07-30T17:21:28Z</time>
      </trkpt>
      <trkpt lat="48.83882" lon="-1.59496">
        <ele>20.81</ele>
        <time>2021-07-30T17:21:29Z</time>
      </trkpt>
      <trkpt lat="48.83922" lon="-1.59634">
        <ele>16</ele>
        <time>2021-07-30T17:21:46Z</time>
      </trkpt>
      <trkpt lat="48.8392" lon="-1.5972">
        <ele>12.15</ele>
        <time>2021-07-30T17:22:00Z</time>
      </trkpt>
      <trkpt lat="48.83915" lon="-1.59743">
        <ele>9.27</ele>
        <time>2021-07-30T17:22:10Z</time>
      </trkpt>
      <trkpt lat="48.83909" lon="-1.59762">
        <ele>8.79</ele>
        <time>2021-07-30T17:22:20Z</time>
      </trkpt>
      <trkpt lat="48.83892" lon="-1.59796">
        <ele>6.87</ele>
        <time>2021-07-30T17:22:33Z</time>
      </trkpt>
      <trkpt lat="48.83874" lon="-1.59836">
        <ele>5.42</ele>
        <time>2021-07-30T17:22:44Z</time>
      </trkpt>
      <trkpt lat="48.83871" lon="-1.59843">
        <ele>4.46</ele>
        <time>2021-07-30T17:22:48Z</time>
      </trkpt>
      <trkpt lat="48.83871" lon="-1.59845">
        <ele>4.46</ele>
        <time>2021-07-30T17:22:49Z</time>
      </trkpt>
    </trkseg>
  </trk>
</gpx>